<?xml version="1.0" encoding="UTF-8" standalone="no" ?>
<gpx xmlns="http://www.topografix.com/GPX/1/1" xmlns:xsi="http://www.w3.org/2001/XMLSchema-instance" xsi:schemaLocation="http://www.topografix.com/GPX/1/1 http://www.topografix.com/GPX/1/1/gpx.xsd" version="1.1" creator="VisuGPX - https://www.visugpx.com">
  <metadata>
    <name>Découverte de la Malepère - 10235 - UtagawaVTT.com</name>
  </metadata>
  <trk>
    <name><![CDATA[Découverte de la Malepère - 10235 - UtagawaVTT.com]]></name>
    <trkseg>
      <trkpt lat="43.16335" lon="2.27205">
        <ele>220.583954</ele>
        <time>2015-07-18T08:18:03Z</time>
      </trkpt>
      <trkpt lat="43.1633" lon="2.27215">
        <ele>220.145187</ele>
        <time>2015-07-18T08:18:17Z</time>
      </trkpt>
      <trkpt lat="43.1633" lon="2.27214">
        <ele>220.23468</ele>
        <time>2015-07-18T08:18:20Z</time>
      </trkpt>
      <trkpt lat="43.1633" lon="2.27213">
        <ele>220.297668</ele>
        <time>2015-07-18T08:18:31Z</time>
      </trkpt>
      <trkpt lat="43.1633" lon="2.2722">
        <ele>219.722137</ele>
        <time>2015-07-18T08:19:19Z</time>
      </trkpt>
      <trkpt lat="43.16332" lon="2.2722">
        <ele>219.707504</ele>
        <time>2015-07-18T08:19:20Z</time>
      </trkpt>
      <trkpt lat="43.16342" lon="2.2721">
        <ele>220.191254</ele>
        <time>2015-07-18T08:19:28Z</time>
      </trkpt>
      <trkpt lat="43.16343" lon="2.27208">
        <ele>220.263443</ele>
        <time>2015-07-18T08:19:29Z</time>
      </trkpt>
      <trkpt lat="43.16342" lon="2.27203">
        <ele>220.519287</ele>
        <time>2015-07-18T08:19:32Z</time>
      </trkpt>
      <trkpt lat="43.16344" lon="2.27205">
        <ele>220.408569</ele>
        <time>2015-07-18T08:20:19Z</time>
      </trkpt>
      <trkpt lat="43.16348" lon="2.27202">
        <ele>220.393982</ele>
        <time>2015-07-18T08:20:24Z</time>
      </trkpt>
      <trkpt lat="43.1641" lon="2.27131">
        <ele>221.74147</ele>
        <time>2015-07-18T08:20:52Z</time>
      </trkpt>
      <trkpt lat="43.16425" lon="2.2709">
        <ele>223.007874</ele>
        <time>2015-07-18T08:21:06Z</time>
      </trkpt>
      <trkpt lat="43.16422" lon="2.27053">
        <ele>223.404739</ele>
        <time>2015-07-18T08:21:18Z</time>
      </trkpt>
      <trkpt lat="43.16395" lon="2.27038">
        <ele>225.155975</ele>
        <time>2015-07-18T08:21:32Z</time>
      </trkpt>
      <trkpt lat="43.16387" lon="2.2704">
        <ele>225.456345</ele>
        <time>2015-07-18T08:21:36Z</time>
      </trkpt>
      <trkpt lat="43.16356" lon="2.27039">
        <ele>227.514389</ele>
        <time>2015-07-18T08:21:54Z</time>
      </trkpt>
      <trkpt lat="43.16354" lon="2.27041">
        <ele>227.534851</ele>
        <time>2015-07-18T08:21:55Z</time>
      </trkpt>
      <trkpt lat="43.16347" lon="2.27041">
        <ele>227.936279</ele>
        <time>2015-07-18T08:21:59Z</time>
      </trkpt>
      <trkpt lat="43.16343" lon="2.27039">
        <ele>228.300247</ele>
        <time>2015-07-18T08:22:01Z</time>
      </trkpt>
      <trkpt lat="43.16313" lon="2.27037">
        <ele>230.29895</ele>
        <time>2015-07-18T08:22:16Z</time>
      </trkpt>
      <trkpt lat="43.16309" lon="2.27033">
        <ele>230.902496</ele>
        <time>2015-07-18T08:22:19Z</time>
      </trkpt>
      <trkpt lat="43.16246" lon="2.27009">
        <ele>232.093689</ele>
        <time>2015-07-18T08:22:41Z</time>
      </trkpt>
      <trkpt lat="43.16233" lon="2.27008">
        <ele>229.680771</ele>
        <time>2015-07-18T08:22:44Z</time>
      </trkpt>
      <trkpt lat="43.16222" lon="2.27003">
        <ele>228.074631</ele>
        <time>2015-07-18T08:22:46Z</time>
      </trkpt>
      <trkpt lat="43.16197" lon="2.26982">
        <ele>227.612503</ele>
        <time>2015-07-18T08:22:50Z</time>
      </trkpt>
      <trkpt lat="43.16191" lon="2.26979">
        <ele>227.777496</ele>
        <time>2015-07-18T08:22:51Z</time>
      </trkpt>
      <trkpt lat="43.16185" lon="2.26978">
        <ele>227.616257</ele>
        <time>2015-07-18T08:22:52Z</time>
      </trkpt>
      <trkpt lat="43.16178" lon="2.26979">
        <ele>227.145004</ele>
        <time>2015-07-18T08:22:53Z</time>
      </trkpt>
      <trkpt lat="43.16165" lon="2.26987">
        <ele>225.461243</ele>
        <time>2015-07-18T08:22:56Z</time>
      </trkpt>
      <trkpt lat="43.16142" lon="2.2701">
        <ele>224.443176</ele>
        <time>2015-07-18T08:23:06Z</time>
      </trkpt>
      <trkpt lat="43.16105" lon="2.27029">
        <ele>224.624695</ele>
        <time>2015-07-18T08:23:17Z</time>
      </trkpt>
      <trkpt lat="43.16065" lon="2.27026">
        <ele>221.273636</ele>
        <time>2015-07-18T08:23:24Z</time>
      </trkpt>
      <trkpt lat="43.16057" lon="2.27024">
        <ele>219.278748</ele>
        <time>2015-07-18T08:23:25Z</time>
      </trkpt>
      <trkpt lat="43.16032" lon="2.27009">
        <ele>213.509384</ele>
        <time>2015-07-18T08:23:28Z</time>
      </trkpt>
      <trkpt lat="43.15991" lon="2.26975">
        <ele>217.636505</ele>
        <time>2015-07-18T08:23:35Z</time>
      </trkpt>
      <trkpt lat="43.15984" lon="2.26982">
        <ele>218.332504</ele>
        <time>2015-07-18T08:23:41Z</time>
      </trkpt>
      <trkpt lat="43.15981" lon="2.26977">
        <ele>218.516525</ele>
        <time>2015-07-18T08:23:46Z</time>
      </trkpt>
      <trkpt lat="43.15968" lon="2.26971">
        <ele>220.899353</ele>
        <time>2015-07-18T08:23:59Z</time>
      </trkpt>
      <trkpt lat="43.15966" lon="2.26981">
        <ele>222.014511</ele>
        <time>2015-07-18T08:24:09Z</time>
      </trkpt>
      <trkpt lat="43.15964" lon="2.26982">
        <ele>222.461563</ele>
        <time>2015-07-18T08:24:11Z</time>
      </trkpt>
      <trkpt lat="43.15956" lon="2.2706">
        <ele>226.824493</ele>
        <time>2015-07-18T08:25:20Z</time>
      </trkpt>
      <trkpt lat="43.15952" lon="2.27066">
        <ele>227.790878</ele>
        <time>2015-07-18T08:25:23Z</time>
      </trkpt>
      <trkpt lat="43.15931" lon="2.27125">
        <ele>231.166855</ele>
        <time>2015-07-18T08:25:56Z</time>
      </trkpt>
      <trkpt lat="43.15937" lon="2.27154">
        <ele>228.008575</ele>
        <time>2015-07-18T08:26:14Z</time>
      </trkpt>
      <trkpt lat="43.15937" lon="2.27157">
        <ele>228.013245</ele>
        <time>2015-07-18T08:26:16Z</time>
      </trkpt>
      <trkpt lat="43.15939" lon="2.27172">
        <ele>227.489685</ele>
        <time>2015-07-18T08:26:25Z</time>
      </trkpt>
      <trkpt lat="43.15942" lon="2.27177">
        <ele>226.862625</ele>
        <time>2015-07-18T08:26:27Z</time>
      </trkpt>
      <trkpt lat="43.15943" lon="2.27181">
        <ele>226.654099</ele>
        <time>2015-07-18T08:26:28Z</time>
      </trkpt>
      <trkpt lat="43.15941" lon="2.27234">
        <ele>225.27269</ele>
        <time>2015-07-18T08:26:50Z</time>
      </trkpt>
      <trkpt lat="43.15954" lon="2.2725">
        <ele>223.718353</ele>
        <time>2015-07-18T08:26:59Z</time>
      </trkpt>
      <trkpt lat="43.15971" lon="2.27259">
        <ele>223.091949</ele>
        <time>2015-07-18T08:27:41Z</time>
      </trkpt>
      <trkpt lat="43.1599" lon="2.27257">
        <ele>222.065994</ele>
        <time>2015-07-18T08:27:51Z</time>
      </trkpt>
      <trkpt lat="43.16011" lon="2.2727">
        <ele>220.153122</ele>
        <time>2015-07-18T08:27:59Z</time>
      </trkpt>
      <trkpt lat="43.16027" lon="2.27247">
        <ele>216.233353</ele>
        <time>2015-07-18T08:28:05Z</time>
      </trkpt>
      <trkpt lat="43.16039" lon="2.27239">
        <ele>212.723679</ele>
        <time>2015-07-18T08:28:08Z</time>
      </trkpt>
      <trkpt lat="43.16056" lon="2.27237">
        <ele>208.250397</ele>
        <time>2015-07-18T08:28:13Z</time>
      </trkpt>
      <trkpt lat="43.16071" lon="2.27239">
        <ele>205.040024</ele>
        <time>2015-07-18T08:28:16Z</time>
      </trkpt>
      <trkpt lat="43.16076" lon="2.27238">
        <ele>204.128677</ele>
        <time>2015-07-18T08:28:17Z</time>
      </trkpt>
      <trkpt lat="43.16086" lon="2.27244">
        <ele>203.519455</ele>
        <time>2015-07-18T08:28:21Z</time>
      </trkpt>
      <trkpt lat="43.1609" lon="2.2726">
        <ele>204.946777</ele>
        <time>2015-07-18T08:28:30Z</time>
      </trkpt>
      <trkpt lat="43.1609" lon="2.27265">
        <ele>205.568695</ele>
        <time>2015-07-18T08:28:33Z</time>
      </trkpt>
      <trkpt lat="43.16101" lon="2.27263">
        <ele>203.5634</ele>
        <time>2015-07-18T08:28:39Z</time>
      </trkpt>
      <trkpt lat="43.1611" lon="2.27244">
        <ele>200.288773</ele>
        <time>2015-07-18T08:28:46Z</time>
      </trkpt>
      <trkpt lat="43.16117" lon="2.27245">
        <ele>199.572601</ele>
        <time>2015-07-18T08:28:49Z</time>
      </trkpt>
      <trkpt lat="43.16123" lon="2.27238">
        <ele>198.536896</ele>
        <time>2015-07-18T08:28:55Z</time>
      </trkpt>
      <trkpt lat="43.16125" lon="2.2724">
        <ele>198.480118</ele>
        <time>2015-07-18T08:28:57Z</time>
      </trkpt>
      <trkpt lat="43.16126" lon="2.27251">
        <ele>199.06575</ele>
        <time>2015-07-18T08:29:04Z</time>
      </trkpt>
      <trkpt lat="43.16134" lon="2.27262">
        <ele>198.777283</ele>
        <time>2015-07-18T08:29:10Z</time>
      </trkpt>
      <trkpt lat="43.1614" lon="2.273">
        <ele>197.699997</ele>
        <time>2015-07-18T08:29:26Z</time>
      </trkpt>
      <trkpt lat="43.16171" lon="2.27332">
        <ele>192.820801</ele>
        <time>2015-07-18T08:29:41Z</time>
      </trkpt>
      <trkpt lat="43.16168" lon="2.27346">
        <ele>192.081146</ele>
        <time>2015-07-18T08:29:47Z</time>
      </trkpt>
      <trkpt lat="43.16154" lon="2.27374">
        <ele>192.292557</ele>
        <time>2015-07-18T08:30:03Z</time>
      </trkpt>
      <trkpt lat="43.16128" lon="2.27399">
        <ele>195.397247</ele>
        <time>2015-07-18T08:30:23Z</time>
      </trkpt>
      <trkpt lat="43.16115" lon="2.27403">
        <ele>196.942703</ele>
        <time>2015-07-18T08:30:31Z</time>
      </trkpt>
      <trkpt lat="43.16108" lon="2.27401">
        <ele>197.957901</ele>
        <time>2015-07-18T08:30:36Z</time>
      </trkpt>
      <trkpt lat="43.15918" lon="2.27472">
        <ele>198.519821</ele>
        <time>2015-07-18T08:31:45Z</time>
      </trkpt>
      <trkpt lat="43.15913" lon="2.27479">
        <ele>198.68132</ele>
        <time>2015-07-18T08:31:46Z</time>
      </trkpt>
      <trkpt lat="43.1591" lon="2.27487">
        <ele>198.646088</ele>
        <time>2015-07-18T08:31:47Z</time>
      </trkpt>
      <trkpt lat="43.15912" lon="2.27595">
        <ele>201.437744</ele>
        <time>2015-07-18T08:32:14Z</time>
      </trkpt>
      <trkpt lat="43.1587" lon="2.27645">
        <ele>204.502869</ele>
        <time>2015-07-18T08:32:45Z</time>
      </trkpt>
      <trkpt lat="43.15868" lon="2.27651">
        <ele>204.323105</ele>
        <time>2015-07-18T08:32:48Z</time>
      </trkpt>
      <trkpt lat="43.15853" lon="2.27666">
        <ele>204.818237</ele>
        <time>2015-07-18T08:32:58Z</time>
      </trkpt>
      <trkpt lat="43.15798" lon="2.27699">
        <ele>214.463959</ele>
        <time>2015-07-18T08:33:31Z</time>
      </trkpt>
      <trkpt lat="43.15797" lon="2.27702">
        <ele>214.694214</ele>
        <time>2015-07-18T08:33:33Z</time>
      </trkpt>
      <trkpt lat="43.15731" lon="2.27754">
        <ele>222.498932</ele>
        <time>2015-07-18T08:34:15Z</time>
      </trkpt>
      <trkpt lat="43.15722" lon="2.27753">
        <ele>224.832016</ele>
        <time>2015-07-18T08:34:20Z</time>
      </trkpt>
      <trkpt lat="43.15698" lon="2.27759">
        <ele>226.616867</ele>
        <time>2015-07-18T08:34:35Z</time>
      </trkpt>
      <trkpt lat="43.15684" lon="2.2774">
        <ele>228.986359</ele>
        <time>2015-07-18T08:34:45Z</time>
      </trkpt>
      <trkpt lat="43.1568" lon="2.27707">
        <ele>232.134842</ele>
        <time>2015-07-18T08:35:00Z</time>
      </trkpt>
      <trkpt lat="43.15679" lon="2.27705">
        <ele>232.254395</ele>
        <time>2015-07-18T08:35:01Z</time>
      </trkpt>
      <trkpt lat="43.15675" lon="2.27595">
        <ele>239.155594</ele>
        <time>2015-07-18T08:35:48Z</time>
      </trkpt>
      <trkpt lat="43.15665" lon="2.27549">
        <ele>240.443527</ele>
        <time>2015-07-18T08:36:03Z</time>
      </trkpt>
      <trkpt lat="43.15648" lon="2.27513">
        <ele>240.991379</ele>
        <time>2015-07-18T08:36:17Z</time>
      </trkpt>
      <trkpt lat="43.15628" lon="2.27492">
        <ele>243.587524</ele>
        <time>2015-07-18T08:36:30Z</time>
      </trkpt>
      <trkpt lat="43.15628" lon="2.27486">
        <ele>244.201843</ele>
        <time>2015-07-18T08:36:32Z</time>
      </trkpt>
      <trkpt lat="43.15622" lon="2.27486">
        <ele>244.893799</ele>
        <time>2015-07-18T08:36:38Z</time>
      </trkpt>
      <trkpt lat="43.15618" lon="2.27482">
        <ele>245.936096</ele>
        <time>2015-07-18T08:36:41Z</time>
      </trkpt>
      <trkpt lat="43.15609" lon="2.2748">
        <ele>247.526077</ele>
        <time>2015-07-18T08:36:47Z</time>
      </trkpt>
      <trkpt lat="43.15607" lon="2.27475">
        <ele>248.4776</ele>
        <time>2015-07-18T08:36:50Z</time>
      </trkpt>
      <trkpt lat="43.15605" lon="2.27466">
        <ele>249.748535</ele>
        <time>2015-07-18T08:36:55Z</time>
      </trkpt>
      <trkpt lat="43.15593" lon="2.27459">
        <ele>252.139084</ele>
        <time>2015-07-18T08:37:01Z</time>
      </trkpt>
      <trkpt lat="43.15592" lon="2.2744">
        <ele>253.488846</ele>
        <time>2015-07-18T08:37:10Z</time>
      </trkpt>
      <trkpt lat="43.15671" lon="2.27188">
        <ele>267.366547</ele>
        <time>2015-07-18T08:39:05Z</time>
      </trkpt>
      <trkpt lat="43.15656" lon="2.27179">
        <ele>266.08786</ele>
        <time>2015-07-18T08:39:20Z</time>
      </trkpt>
      <trkpt lat="43.1565" lon="2.27154">
        <ele>265.401001</ele>
        <time>2015-07-18T08:39:31Z</time>
      </trkpt>
      <trkpt lat="43.1566" lon="2.27103">
        <ele>264.383636</ele>
        <time>2015-07-18T08:39:51Z</time>
      </trkpt>
      <trkpt lat="43.15657" lon="2.27095">
        <ele>263.675476</ele>
        <time>2015-07-18T08:39:55Z</time>
      </trkpt>
      <trkpt lat="43.15653" lon="2.27091">
        <ele>262.970734</ele>
        <time>2015-07-18T08:39:59Z</time>
      </trkpt>
      <trkpt lat="43.15632" lon="2.27099">
        <ele>260.660797</ele>
        <time>2015-07-18T08:40:08Z</time>
      </trkpt>
      <trkpt lat="43.15604" lon="2.27125">
        <ele>257.543365</ele>
        <time>2015-07-18T08:40:19Z</time>
      </trkpt>
      <trkpt lat="43.15591" lon="2.27129">
        <ele>255.560043</ele>
        <time>2015-07-18T08:40:30Z</time>
      </trkpt>
      <trkpt lat="43.15585" lon="2.27124">
        <ele>253.8685</ele>
        <time>2015-07-18T08:40:33Z</time>
      </trkpt>
      <trkpt lat="43.15583" lon="2.27123">
        <ele>253.396347</ele>
        <time>2015-07-18T08:40:34Z</time>
      </trkpt>
      <trkpt lat="43.15577" lon="2.27124">
        <ele>252.197723</ele>
        <time>2015-07-18T08:40:45Z</time>
      </trkpt>
      <trkpt lat="43.15573" lon="2.27128">
        <ele>251.65274</ele>
        <time>2015-07-18T08:40:48Z</time>
      </trkpt>
      <trkpt lat="43.15561" lon="2.27137">
        <ele>248.889999</ele>
        <time>2015-07-18T08:40:54Z</time>
      </trkpt>
      <trkpt lat="43.15549" lon="2.27131">
        <ele>244.486801</ele>
        <time>2015-07-18T08:40:59Z</time>
      </trkpt>
      <trkpt lat="43.15548" lon="2.27131">
        <ele>244.203949</ele>
        <time>2015-07-18T08:41:11Z</time>
      </trkpt>
      <trkpt lat="43.1555" lon="2.27131">
        <ele>244.802505</ele>
        <time>2015-07-18T08:41:21Z</time>
      </trkpt>
      <trkpt lat="43.15552" lon="2.27122">
        <ele>244.795975</ele>
        <time>2015-07-18T08:41:44Z</time>
      </trkpt>
      <trkpt lat="43.15545" lon="2.27103">
        <ele>241.690369</ele>
        <time>2015-07-18T08:41:50Z</time>
      </trkpt>
      <trkpt lat="43.15537" lon="2.27094">
        <ele>238.960083</ele>
        <time>2015-07-18T08:41:55Z</time>
      </trkpt>
      <trkpt lat="43.15536" lon="2.27082">
        <ele>237.382507</ele>
        <time>2015-07-18T08:41:59Z</time>
      </trkpt>
      <trkpt lat="43.15526" lon="2.27072">
        <ele>233.893875</ele>
        <time>2015-07-18T08:42:05Z</time>
      </trkpt>
      <trkpt lat="43.15534" lon="2.27047">
        <ele>232.270004</ele>
        <time>2015-07-18T08:42:14Z</time>
      </trkpt>
      <trkpt lat="43.15519" lon="2.27018">
        <ele>226.37439</ele>
        <time>2015-07-18T08:42:26Z</time>
      </trkpt>
      <trkpt lat="43.15518" lon="2.27006">
        <ele>224.765228</ele>
        <time>2015-07-18T08:42:29Z</time>
      </trkpt>
      <trkpt lat="43.15513" lon="2.26998">
        <ele>222.73584</ele>
        <time>2015-07-18T08:42:34Z</time>
      </trkpt>
      <trkpt lat="43.15509" lon="2.26997">
        <ele>221.670807</ele>
        <time>2015-07-18T08:42:38Z</time>
      </trkpt>
      <trkpt lat="43.15503" lon="2.26993">
        <ele>220.040756</ele>
        <time>2015-07-18T08:42:41Z</time>
      </trkpt>
      <trkpt lat="43.1549" lon="2.2697">
        <ele>213.443863</ele>
        <time>2015-07-18T08:42:53Z</time>
      </trkpt>
      <trkpt lat="43.15483" lon="2.26971">
        <ele>212.307495</ele>
        <time>2015-07-18T08:42:56Z</time>
      </trkpt>
      <trkpt lat="43.15479" lon="2.26972">
        <ele>211.774994</ele>
        <time>2015-07-18T08:42:59Z</time>
      </trkpt>
      <trkpt lat="43.1547" lon="2.26967">
        <ele>209.440002</ele>
        <time>2015-07-18T08:43:04Z</time>
      </trkpt>
      <trkpt lat="43.1547" lon="2.26964">
        <ele>209.020004</ele>
        <time>2015-07-18T08:43:05Z</time>
      </trkpt>
      <trkpt lat="43.1546" lon="2.26936">
        <ele>203.51001</ele>
        <time>2015-07-18T08:43:17Z</time>
      </trkpt>
      <trkpt lat="43.15397" lon="2.26883">
        <ele>193.613831</ele>
        <time>2015-07-18T08:44:06Z</time>
      </trkpt>
      <trkpt lat="43.15389" lon="2.26867">
        <ele>194.774368</ele>
        <time>2015-07-18T08:44:12Z</time>
      </trkpt>
      <trkpt lat="43.154" lon="2.26848">
        <ele>195.903748</ele>
        <time>2015-07-18T08:44:31Z</time>
      </trkpt>
      <trkpt lat="43.15383" lon="2.26856">
        <ele>195.645004</ele>
        <time>2015-07-18T08:44:36Z</time>
      </trkpt>
      <trkpt lat="43.15379" lon="2.2686">
        <ele>195.414017</ele>
        <time>2015-07-18T08:44:37Z</time>
      </trkpt>
      <trkpt lat="43.15377" lon="2.26865">
        <ele>195.019913</ele>
        <time>2015-07-18T08:44:38Z</time>
      </trkpt>
      <trkpt lat="43.15377" lon="2.2687">
        <ele>194.589005</ele>
        <time>2015-07-18T08:44:39Z</time>
      </trkpt>
      <trkpt lat="43.15377" lon="2.26874">
        <ele>194.283478</ele>
        <time>2015-07-18T08:44:40Z</time>
      </trkpt>
      <trkpt lat="43.15379" lon="2.26875">
        <ele>194.169754</ele>
        <time>2015-07-18T08:44:41Z</time>
      </trkpt>
      <trkpt lat="43.15385" lon="2.26876">
        <ele>194.091492</ele>
        <time>2015-07-18T08:44:44Z</time>
      </trkpt>
      <trkpt lat="43.15391" lon="2.26883">
        <ele>193.608948</ele>
        <time>2015-07-18T08:44:46Z</time>
      </trkpt>
      <trkpt lat="43.15392" lon="2.26894">
        <ele>192.829712</ele>
        <time>2015-07-18T08:44:51Z</time>
      </trkpt>
      <trkpt lat="43.15388" lon="2.26909">
        <ele>191.791779</ele>
        <time>2015-07-18T08:44:57Z</time>
      </trkpt>
      <trkpt lat="43.15388" lon="2.26912">
        <ele>192.069702</ele>
        <time>2015-07-18T08:44:58Z</time>
      </trkpt>
      <trkpt lat="43.15386" lon="2.2692">
        <ele>192.713669</ele>
        <time>2015-07-18T08:45:01Z</time>
      </trkpt>
      <trkpt lat="43.15381" lon="2.26931">
        <ele>193.175568</ele>
        <time>2015-07-18T08:45:06Z</time>
      </trkpt>
      <trkpt lat="43.15323" lon="2.26966">
        <ele>189.835541</ele>
        <time>2015-07-18T08:45:29Z</time>
      </trkpt>
      <trkpt lat="43.15259" lon="2.27049">
        <ele>187.79631</ele>
        <time>2015-07-18T08:46:36Z</time>
      </trkpt>
      <trkpt lat="43.15246" lon="2.27084">
        <ele>184.876587</ele>
        <time>2015-07-18T08:46:59Z</time>
      </trkpt>
      <trkpt lat="43.15231" lon="2.27101">
        <ele>184.207001</ele>
        <time>2015-07-18T08:47:09Z</time>
      </trkpt>
      <trkpt lat="43.15186" lon="2.27127">
        <ele>185.209015</ele>
        <time>2015-07-18T08:47:36Z</time>
      </trkpt>
      <trkpt lat="43.15009" lon="2.27499">
        <ele>174.641983</ele>
        <time>2015-07-18T08:48:30Z</time>
      </trkpt>
      <trkpt lat="43.14921" lon="2.27609">
        <ele>171.371796</ele>
        <time>2015-07-18T08:48:59Z</time>
      </trkpt>
      <trkpt lat="43.14913" lon="2.27615">
        <ele>171.145142</ele>
        <time>2015-07-18T08:49:02Z</time>
      </trkpt>
      <trkpt lat="43.1491" lon="2.27615">
        <ele>171.285767</ele>
        <time>2015-07-18T08:49:03Z</time>
      </trkpt>
      <trkpt lat="43.14908" lon="2.27612">
        <ele>171.577545</ele>
        <time>2015-07-18T08:49:04Z</time>
      </trkpt>
      <trkpt lat="43.14906" lon="2.27609">
        <ele>171.911209</ele>
        <time>2015-07-18T08:49:05Z</time>
      </trkpt>
      <trkpt lat="43.14891" lon="2.27426">
        <ele>182.299652</ele>
        <time>2015-07-18T08:50:03Z</time>
      </trkpt>
      <trkpt lat="43.14899" lon="2.27367">
        <ele>185.7621</ele>
        <time>2015-07-18T08:50:26Z</time>
      </trkpt>
      <trkpt lat="43.14902" lon="2.27367">
        <ele>185.678116</ele>
        <time>2015-07-18T08:50:37Z</time>
      </trkpt>
      <trkpt lat="43.14905" lon="2.27365">
        <ele>185.83284</ele>
        <time>2015-07-18T08:51:09Z</time>
      </trkpt>
      <trkpt lat="43.14905" lon="2.27368">
        <ele>185.509048</ele>
        <time>2015-07-18T08:51:54Z</time>
      </trkpt>
      <trkpt lat="43.14902" lon="2.27366">
        <ele>185.750885</ele>
        <time>2015-07-18T08:52:07Z</time>
      </trkpt>
      <trkpt lat="43.14838" lon="2.27132">
        <ele>201.109207</ele>
        <time>2015-07-18T08:53:25Z</time>
      </trkpt>
      <trkpt lat="43.14839" lon="2.27131">
        <ele>201.103058</ele>
        <time>2015-07-18T08:53:26Z</time>
      </trkpt>
      <trkpt lat="43.14838" lon="2.27129">
        <ele>201.174271</ele>
        <time>2015-07-18T08:53:42Z</time>
      </trkpt>
      <trkpt lat="43.14831" lon="2.27061">
        <ele>202.434998</ele>
        <time>2015-07-18T08:54:13Z</time>
      </trkpt>
      <trkpt lat="43.14898" lon="2.26598">
        <ele>239.814972</ele>
        <time>2015-07-18T08:56:43Z</time>
      </trkpt>
      <trkpt lat="43.14897" lon="2.26596">
        <ele>239.845932</ele>
        <time>2015-07-18T08:56:44Z</time>
      </trkpt>
      <trkpt lat="43.14894" lon="2.26596">
        <ele>239.653168</ele>
        <time>2015-07-18T08:56:58Z</time>
      </trkpt>
      <trkpt lat="43.14896" lon="2.26597">
        <ele>239.727661</ele>
        <time>2015-07-18T08:57:17Z</time>
      </trkpt>
      <trkpt lat="43.14892" lon="2.26595">
        <ele>239.611206</ele>
        <time>2015-07-18T08:57:28Z</time>
      </trkpt>
      <trkpt lat="43.14892" lon="2.26593">
        <ele>239.655029</ele>
        <time>2015-07-18T08:57:29Z</time>
      </trkpt>
      <trkpt lat="43.14892" lon="2.26591">
        <ele>239.771545</ele>
        <time>2015-07-18T08:57:30Z</time>
      </trkpt>
      <trkpt lat="43.15095" lon="2.26226">
        <ele>277.990601</ele>
        <time>2015-07-18T09:00:16Z</time>
      </trkpt>
      <trkpt lat="43.15121" lon="2.26211">
        <ele>284.316559</ele>
        <time>2015-07-18T09:00:34Z</time>
      </trkpt>
      <trkpt lat="43.15208" lon="2.26202">
        <ele>299.175079</ele>
        <time>2015-07-18T09:01:35Z</time>
      </trkpt>
      <trkpt lat="43.15236" lon="2.26203">
        <ele>301.677002</ele>
        <time>2015-07-18T09:01:56Z</time>
      </trkpt>
      <trkpt lat="43.15242" lon="2.26198">
        <ele>302.06015</ele>
        <time>2015-07-18T09:02:02Z</time>
      </trkpt>
      <trkpt lat="43.15249" lon="2.26191">
        <ele>302.47522</ele>
        <time>2015-07-18T09:02:09Z</time>
      </trkpt>
      <trkpt lat="43.15251" lon="2.2619">
        <ele>302.711792</ele>
        <time>2015-07-18T09:02:12Z</time>
      </trkpt>
      <trkpt lat="43.15267" lon="2.26166">
        <ele>303.765106</ele>
        <time>2015-07-18T09:02:30Z</time>
      </trkpt>
      <trkpt lat="43.15337" lon="2.25832">
        <ele>318.743927</ele>
        <time>2015-07-18T09:04:51Z</time>
      </trkpt>
      <trkpt lat="43.15414" lon="2.25596">
        <ele>331.993439</ele>
        <time>2015-07-18T09:06:15Z</time>
      </trkpt>
      <trkpt lat="43.15391" lon="2.25473">
        <ele>324.992676</ele>
        <time>2015-07-18T09:06:45Z</time>
      </trkpt>
      <trkpt lat="43.15395" lon="2.2519">
        <ele>336.563599</ele>
        <time>2015-07-18T09:08:03Z</time>
      </trkpt>
      <trkpt lat="43.15381" lon="2.25148">
        <ele>336.080872</ele>
        <time>2015-07-18T09:08:14Z</time>
      </trkpt>
      <trkpt lat="43.15428" lon="2.24844">
        <ele>336.674774</ele>
        <time>2015-07-18T09:09:12Z</time>
      </trkpt>
      <trkpt lat="43.15385" lon="2.24738">
        <ele>338.213776</ele>
        <time>2015-07-18T09:09:32Z</time>
      </trkpt>
      <trkpt lat="43.15388" lon="2.24578">
        <ele>336.016052</ele>
        <time>2015-07-18T09:09:55Z</time>
      </trkpt>
      <trkpt lat="43.15326" lon="2.24282">
        <ele>341.794922</ele>
        <time>2015-07-18T09:10:51Z</time>
      </trkpt>
      <trkpt lat="43.15299" lon="2.24241">
        <ele>345.166779</ele>
        <time>2015-07-18T09:11:03Z</time>
      </trkpt>
      <trkpt lat="43.15264" lon="2.24246">
        <ele>344.027008</ele>
        <time>2015-07-18T09:11:14Z</time>
      </trkpt>
      <trkpt lat="43.15227" lon="2.2424">
        <ele>349.87619</ele>
        <time>2015-07-18T09:11:26Z</time>
      </trkpt>
      <trkpt lat="43.15184" lon="2.24322">
        <ele>350.955688</ele>
        <time>2015-07-18T09:11:47Z</time>
      </trkpt>
      <trkpt lat="43.15106" lon="2.244">
        <ele>342.338928</ele>
        <time>2015-07-18T09:12:06Z</time>
      </trkpt>
      <trkpt lat="43.151" lon="2.24403">
        <ele>341.606262</ele>
        <time>2015-07-18T09:12:07Z</time>
      </trkpt>
      <trkpt lat="43.15093" lon="2.24402">
        <ele>341.347046</ele>
        <time>2015-07-18T09:12:08Z</time>
      </trkpt>
      <trkpt lat="43.15065" lon="2.24386">
        <ele>341.301788</ele>
        <time>2015-07-18T09:12:12Z</time>
      </trkpt>
      <trkpt lat="43.15049" lon="2.24385">
        <ele>340.318573</ele>
        <time>2015-07-18T09:12:14Z</time>
      </trkpt>
      <trkpt lat="43.15041" lon="2.24387">
        <ele>339.930573</ele>
        <time>2015-07-18T09:12:15Z</time>
      </trkpt>
      <trkpt lat="43.15028" lon="2.24399">
        <ele>340.015015</ele>
        <time>2015-07-18T09:12:17Z</time>
      </trkpt>
      <trkpt lat="43.14968" lon="2.245">
        <ele>342.546814</ele>
        <time>2015-07-18T09:12:36Z</time>
      </trkpt>
      <trkpt lat="43.14961" lon="2.24505">
        <ele>342.822632</ele>
        <time>2015-07-18T09:12:38Z</time>
      </trkpt>
      <trkpt lat="43.14937" lon="2.24508">
        <ele>344.927124</ele>
        <time>2015-07-18T09:12:43Z</time>
      </trkpt>
      <trkpt lat="43.14894" lon="2.24534">
        <ele>345.346558</ele>
        <time>2015-07-18T09:12:50Z</time>
      </trkpt>
      <trkpt lat="43.14887" lon="2.24556">
        <ele>340.854156</ele>
        <time>2015-07-18T09:12:53Z</time>
      </trkpt>
      <trkpt lat="43.1488" lon="2.24566">
        <ele>338.71875</ele>
        <time>2015-07-18T09:12:55Z</time>
      </trkpt>
      <trkpt lat="43.14876" lon="2.2457">
        <ele>337.923065</ele>
        <time>2015-07-18T09:12:56Z</time>
      </trkpt>
      <trkpt lat="43.14867" lon="2.24572">
        <ele>337.403229</ele>
        <time>2015-07-18T09:12:58Z</time>
      </trkpt>
      <trkpt lat="43.14822" lon="2.24561">
        <ele>338.873932</ele>
        <time>2015-07-18T09:13:06Z</time>
      </trkpt>
      <trkpt lat="43.14808" lon="2.24561">
        <ele>337.796692</ele>
        <time>2015-07-18T09:13:08Z</time>
      </trkpt>
      <trkpt lat="43.14801" lon="2.24564">
        <ele>336.529724</ele>
        <time>2015-07-18T09:13:09Z</time>
      </trkpt>
      <trkpt lat="43.14781" lon="2.24582">
        <ele>331.178131</ele>
        <time>2015-07-18T09:13:12Z</time>
      </trkpt>
      <trkpt lat="43.14763" lon="2.2461">
        <ele>325.747742</ele>
        <time>2015-07-18T09:13:16Z</time>
      </trkpt>
      <trkpt lat="43.14756" lon="2.24616">
        <ele>324.119659</ele>
        <time>2015-07-18T09:13:18Z</time>
      </trkpt>
      <trkpt lat="43.14753" lon="2.24617">
        <ele>323.604309</ele>
        <time>2015-07-18T09:13:19Z</time>
      </trkpt>
      <trkpt lat="43.14748" lon="2.24615">
        <ele>323.421844</ele>
        <time>2015-07-18T09:13:20Z</time>
      </trkpt>
      <trkpt lat="43.14725" lon="2.24593">
        <ele>325.259979</ele>
        <time>2015-07-18T09:13:25Z</time>
      </trkpt>
      <trkpt lat="43.14719" lon="2.24592">
        <ele>325.49408</ele>
        <time>2015-07-18T09:13:26Z</time>
      </trkpt>
      <trkpt lat="43.14713" lon="2.24593">
        <ele>325.707245</ele>
        <time>2015-07-18T09:13:27Z</time>
      </trkpt>
      <trkpt lat="43.14706" lon="2.24596">
        <ele>325.486542</ele>
        <time>2015-07-18T09:13:28Z</time>
      </trkpt>
      <trkpt lat="43.14681" lon="2.24618">
        <ele>321.496307</ele>
        <time>2015-07-18T09:13:33Z</time>
      </trkpt>
      <trkpt lat="43.14632" lon="2.24625">
        <ele>326.532684</ele>
        <time>2015-07-18T09:13:43Z</time>
      </trkpt>
      <trkpt lat="43.14602" lon="2.24642">
        <ele>327.482117</ele>
        <time>2015-07-18T09:13:51Z</time>
      </trkpt>
      <trkpt lat="43.14576" lon="2.24703">
        <ele>323.700012</ele>
        <time>2015-07-18T09:14:03Z</time>
      </trkpt>
      <trkpt lat="43.14554" lon="2.24727">
        <ele>322.619995</ele>
        <time>2015-07-18T09:14:08Z</time>
      </trkpt>
      <trkpt lat="43.14548" lon="2.24731">
        <ele>322.649994</ele>
        <time>2015-07-18T09:14:09Z</time>
      </trkpt>
      <trkpt lat="43.14542" lon="2.24733">
        <ele>322.673004</ele>
        <time>2015-07-18T09:14:10Z</time>
      </trkpt>
      <trkpt lat="43.14439" lon="2.24713">
        <ele>311.170868</ele>
        <time>2015-07-18T09:14:22Z</time>
      </trkpt>
      <trkpt lat="43.144" lon="2.24717">
        <ele>304.773621</ele>
        <time>2015-07-18T09:14:28Z</time>
      </trkpt>
      <trkpt lat="43.14396" lon="2.24722">
        <ele>304.325439</ele>
        <time>2015-07-18T09:14:29Z</time>
      </trkpt>
      <trkpt lat="43.14394" lon="2.24729">
        <ele>304.209839</ele>
        <time>2015-07-18T09:14:30Z</time>
      </trkpt>
      <trkpt lat="43.14396" lon="2.24746">
        <ele>304.446991</ele>
        <time>2015-07-18T09:14:33Z</time>
      </trkpt>
      <trkpt lat="43.14343" lon="2.24951">
        <ele>303.538086</ele>
        <time>2015-07-18T09:15:12Z</time>
      </trkpt>
      <trkpt lat="43.14343" lon="2.24983">
        <ele>302.819672</ele>
        <time>2015-07-18T09:15:16Z</time>
      </trkpt>
      <trkpt lat="43.143" lon="2.25156">
        <ele>302.925354</ele>
        <time>2015-07-18T09:15:43Z</time>
      </trkpt>
      <trkpt lat="43.14139" lon="2.25567">
        <ele>293.096924</ele>
        <time>2015-07-18T09:16:51Z</time>
      </trkpt>
      <trkpt lat="43.14077" lon="2.25932">
        <ele>278.877167</ele>
        <time>2015-07-18T09:17:28Z</time>
      </trkpt>
      <trkpt lat="43.14057" lon="2.26002">
        <ele>280.6698</ele>
        <time>2015-07-18T09:17:45Z</time>
      </trkpt>
      <trkpt lat="43.14055" lon="2.26002">
        <ele>280.774628</ele>
        <time>2015-07-18T09:17:46Z</time>
      </trkpt>
      <trkpt lat="43.14049" lon="2.25998">
        <ele>280.905212</ele>
        <time>2015-07-18T09:17:50Z</time>
      </trkpt>
      <trkpt lat="43.1405" lon="2.25998">
        <ele>280.989288</ele>
        <time>2015-07-18T09:18:15Z</time>
      </trkpt>
      <trkpt lat="43.14011" lon="2.25932">
        <ele>270.382477</ele>
        <time>2015-07-18T09:18:40Z</time>
      </trkpt>
      <trkpt lat="43.14009" lon="2.25909">
        <ele>267.600067</ele>
        <time>2015-07-18T09:18:43Z</time>
      </trkpt>
      <trkpt lat="43.14013" lon="2.25881">
        <ele>265.485138</ele>
        <time>2015-07-18T09:18:46Z</time>
      </trkpt>
      <trkpt lat="43.13984" lon="2.2568">
        <ele>254.361252</ele>
        <time>2015-07-18T09:19:02Z</time>
      </trkpt>
      <trkpt lat="43.13973" lon="2.2565">
        <ele>253.904999</ele>
        <time>2015-07-18T09:19:05Z</time>
      </trkpt>
      <trkpt lat="43.13968" lon="2.25643">
        <ele>253.317505</ele>
        <time>2015-07-18T09:19:06Z</time>
      </trkpt>
      <trkpt lat="43.13938" lon="2.2562">
        <ele>253.270004</ele>
        <time>2015-07-18T09:19:11Z</time>
      </trkpt>
      <trkpt lat="43.13931" lon="2.25619">
        <ele>253.404999</ele>
        <time>2015-07-18T09:19:12Z</time>
      </trkpt>
      <trkpt lat="43.13866" lon="2.25645">
        <ele>253.070984</ele>
        <time>2015-07-18T09:19:25Z</time>
      </trkpt>
      <trkpt lat="43.13841" lon="2.25641">
        <ele>254.73642</ele>
        <time>2015-07-18T09:19:34Z</time>
      </trkpt>
      <trkpt lat="43.1378" lon="2.25604">
        <ele>261.419281</ele>
        <time>2015-07-18T09:20:00Z</time>
      </trkpt>
      <trkpt lat="43.13755" lon="2.25578">
        <ele>265.266083</ele>
        <time>2015-07-18T09:20:13Z</time>
      </trkpt>
      <trkpt lat="43.13703" lon="2.25553">
        <ele>266.798798</ele>
        <time>2015-07-18T09:20:38Z</time>
      </trkpt>
      <trkpt lat="43.13644" lon="2.25477">
        <ele>263.896027</ele>
        <time>2015-07-18T09:21:04Z</time>
      </trkpt>
      <trkpt lat="43.13622" lon="2.2539">
        <ele>256.882813</ele>
        <time>2015-07-18T09:21:16Z</time>
      </trkpt>
      <trkpt lat="43.13623" lon="2.25383">
        <ele>256.17453</ele>
        <time>2015-07-18T09:21:17Z</time>
      </trkpt>
      <trkpt lat="43.13637" lon="2.25352">
        <ele>252.676193</ele>
        <time>2015-07-18T09:21:21Z</time>
      </trkpt>
      <trkpt lat="43.13641" lon="2.25332">
        <ele>250.5345</ele>
        <time>2015-07-18T09:21:23Z</time>
      </trkpt>
      <trkpt lat="43.13641" lon="2.25216">
        <ele>231.526398</ele>
        <time>2015-07-18T09:21:37Z</time>
      </trkpt>
      <trkpt lat="43.13644" lon="2.25209">
        <ele>230.660873</ele>
        <time>2015-07-18T09:21:38Z</time>
      </trkpt>
      <trkpt lat="43.13668" lon="2.25181">
        <ele>230.575867</ele>
        <time>2015-07-18T09:21:43Z</time>
      </trkpt>
      <trkpt lat="43.13683" lon="2.25149">
        <ele>227.802399</ele>
        <time>2015-07-18T09:21:47Z</time>
      </trkpt>
      <trkpt lat="43.13681" lon="2.25132">
        <ele>225.431229</ele>
        <time>2015-07-18T09:21:49Z</time>
      </trkpt>
      <trkpt lat="43.13678" lon="2.25124">
        <ele>226.90094</ele>
        <time>2015-07-18T09:21:50Z</time>
      </trkpt>
      <trkpt lat="43.13673" lon="2.2512">
        <ele>228.061874</ele>
        <time>2015-07-18T09:21:51Z</time>
      </trkpt>
      <trkpt lat="43.13667" lon="2.25118">
        <ele>228.818893</ele>
        <time>2015-07-18T09:21:52Z</time>
      </trkpt>
      <trkpt lat="43.13657" lon="2.25118">
        <ele>229.388107</ele>
        <time>2015-07-18T09:21:54Z</time>
      </trkpt>
      <trkpt lat="43.1361" lon="2.25141">
        <ele>228.328506</ele>
        <time>2015-07-18T09:22:09Z</time>
      </trkpt>
      <trkpt lat="43.13561" lon="2.2514">
        <ele>228.967621</ele>
        <time>2015-07-18T09:22:26Z</time>
      </trkpt>
      <trkpt lat="43.13535" lon="2.2511">
        <ele>232.918869</ele>
        <time>2015-07-18T09:22:38Z</time>
      </trkpt>
      <trkpt lat="43.13523" lon="2.25047">
        <ele>242.212509</ele>
        <time>2015-07-18T09:22:54Z</time>
      </trkpt>
      <trkpt lat="43.13499" lon="2.25026">
        <ele>244.393295</ele>
        <time>2015-07-18T09:23:04Z</time>
      </trkpt>
      <trkpt lat="43.13456" lon="2.25034">
        <ele>242.212463</ele>
        <time>2015-07-18T09:23:18Z</time>
      </trkpt>
      <trkpt lat="43.13391" lon="2.24934">
        <ele>252.672333</ele>
        <time>2015-07-18T09:23:54Z</time>
      </trkpt>
      <trkpt lat="43.13391" lon="2.24891">
        <ele>255.502075</ele>
        <time>2015-07-18T09:24:05Z</time>
      </trkpt>
      <trkpt lat="43.13418" lon="2.24797">
        <ele>259.439423</ele>
        <time>2015-07-18T09:24:31Z</time>
      </trkpt>
      <trkpt lat="43.13419" lon="2.24751">
        <ele>258.605225</ele>
        <time>2015-07-18T09:24:41Z</time>
      </trkpt>
      <trkpt lat="43.13414" lon="2.24724">
        <ele>257.169159</ele>
        <time>2015-07-18T09:24:44Z</time>
      </trkpt>
      <trkpt lat="43.134" lon="2.24696">
        <ele>254.624374</ele>
        <time>2015-07-18T09:24:47Z</time>
      </trkpt>
      <trkpt lat="43.13394" lon="2.24689">
        <ele>253.381592</ele>
        <time>2015-07-18T09:24:48Z</time>
      </trkpt>
      <trkpt lat="43.13386" lon="2.24683">
        <ele>252.016251</ele>
        <time>2015-07-18T09:24:49Z</time>
      </trkpt>
      <trkpt lat="43.13313" lon="2.24664">
        <ele>244.049454</ele>
        <time>2015-07-18T09:24:56Z</time>
      </trkpt>
      <trkpt lat="43.13267" lon="2.24618">
        <ele>237.286316</ele>
        <time>2015-07-18T09:25:01Z</time>
      </trkpt>
      <trkpt lat="43.13258" lon="2.24613">
        <ele>236.376755</ele>
        <time>2015-07-18T09:25:02Z</time>
      </trkpt>
      <trkpt lat="43.13238" lon="2.24608">
        <ele>235.052094</ele>
        <time>2015-07-18T09:25:04Z</time>
      </trkpt>
      <trkpt lat="43.13228" lon="2.24603">
        <ele>233.899826</ele>
        <time>2015-07-18T09:25:05Z</time>
      </trkpt>
      <trkpt lat="43.13209" lon="2.24578">
        <ele>230.345001</ele>
        <time>2015-07-18T09:25:08Z</time>
      </trkpt>
      <trkpt lat="43.13199" lon="2.24575">
        <ele>229.616241</ele>
        <time>2015-07-18T09:25:09Z</time>
      </trkpt>
      <trkpt lat="43.13178" lon="2.24577">
        <ele>228.042786</ele>
        <time>2015-07-18T09:25:11Z</time>
      </trkpt>
      <trkpt lat="43.13136" lon="2.24558">
        <ele>220.753998</ele>
        <time>2015-07-18T09:25:15Z</time>
      </trkpt>
      <trkpt lat="43.13115" lon="2.24559">
        <ele>217.372467</ele>
        <time>2015-07-18T09:25:17Z</time>
      </trkpt>
      <trkpt lat="43.13106" lon="2.24563">
        <ele>216.338211</ele>
        <time>2015-07-18T09:25:18Z</time>
      </trkpt>
      <trkpt lat="43.13099" lon="2.2457">
        <ele>214.92868</ele>
        <time>2015-07-18T09:25:19Z</time>
      </trkpt>
      <trkpt lat="43.13081" lon="2.24609">
        <ele>210.004639</ele>
        <time>2015-07-18T09:25:23Z</time>
      </trkpt>
      <trkpt lat="43.13075" lon="2.24613">
        <ele>208.192245</ele>
        <time>2015-07-18T09:25:24Z</time>
      </trkpt>
      <trkpt lat="43.13069" lon="2.2461">
        <ele>206.19371</ele>
        <time>2015-07-18T09:25:25Z</time>
      </trkpt>
      <trkpt lat="43.13066" lon="2.24604">
        <ele>205.345596</ele>
        <time>2015-07-18T09:25:26Z</time>
      </trkpt>
      <trkpt lat="43.13061" lon="2.24562">
        <ele>203.789856</ele>
        <time>2015-07-18T09:25:30Z</time>
      </trkpt>
      <trkpt lat="43.13073" lon="2.2451">
        <ele>204.960297</ele>
        <time>2015-07-18T09:25:36Z</time>
      </trkpt>
      <trkpt lat="43.13071" lon="2.24502">
        <ele>204.21814</ele>
        <time>2015-07-18T09:25:37Z</time>
      </trkpt>
      <trkpt lat="43.13057" lon="2.24478">
        <ele>201.229889</ele>
        <time>2015-07-18T09:25:40Z</time>
      </trkpt>
      <trkpt lat="43.13032" lon="2.24403">
        <ele>198.945679</ele>
        <time>2015-07-18T09:25:51Z</time>
      </trkpt>
      <trkpt lat="43.1303" lon="2.244">
        <ele>198.96106</ele>
        <time>2015-07-18T09:25:52Z</time>
      </trkpt>
      <trkpt lat="43.13027" lon="2.24399">
        <ele>198.964294</ele>
        <time>2015-07-18T09:25:53Z</time>
      </trkpt>
      <trkpt lat="43.13024" lon="2.244">
        <ele>198.914536</ele>
        <time>2015-07-18T09:25:54Z</time>
      </trkpt>
      <trkpt lat="43.13021" lon="2.24404">
        <ele>198.815033</ele>
        <time>2015-07-18T09:25:55Z</time>
      </trkpt>
      <trkpt lat="43.1302" lon="2.24409">
        <ele>198.663849</ele>
        <time>2015-07-18T09:25:56Z</time>
      </trkpt>
      <trkpt lat="43.13023" lon="2.24437">
        <ele>198.113922</ele>
        <time>2015-07-18T09:26:02Z</time>
      </trkpt>
      <trkpt lat="43.13013" lon="2.24481">
        <ele>197.153122</ele>
        <time>2015-07-18T09:26:15Z</time>
      </trkpt>
      <trkpt lat="43.12996" lon="2.24498">
        <ele>199.21994</ele>
        <time>2015-07-18T09:26:24Z</time>
      </trkpt>
      <trkpt lat="43.12978" lon="2.2451">
        <ele>201.028351</ele>
        <time>2015-07-18T09:26:34Z</time>
      </trkpt>
      <trkpt lat="43.12957" lon="2.24535">
        <ele>202.389389</ele>
        <time>2015-07-18T09:26:47Z</time>
      </trkpt>
      <trkpt lat="43.1293" lon="2.24595">
        <ele>203.41777</ele>
        <time>2015-07-18T09:27:02Z</time>
      </trkpt>
      <trkpt lat="43.12929" lon="2.24597">
        <ele>203.691696</ele>
        <time>2015-07-18T09:27:04Z</time>
      </trkpt>
      <trkpt lat="43.12931" lon="2.24599">
        <ele>203.434006</ele>
        <time>2015-07-18T09:27:20Z</time>
      </trkpt>
      <trkpt lat="43.12934" lon="2.24594">
        <ele>202.823242</ele>
        <time>2015-07-18T09:27:59Z</time>
      </trkpt>
      <trkpt lat="43.12932" lon="2.24595">
        <ele>203.152954</ele>
        <time>2015-07-18T09:28:33Z</time>
      </trkpt>
      <trkpt lat="43.12933" lon="2.24598">
        <ele>203.147675</ele>
        <time>2015-07-18T09:28:56Z</time>
      </trkpt>
      <trkpt lat="43.12927" lon="2.24598">
        <ele>204.026291</ele>
        <time>2015-07-18T09:29:11Z</time>
      </trkpt>
      <trkpt lat="43.12924" lon="2.246">
        <ele>204.699371</ele>
        <time>2015-07-18T09:29:13Z</time>
      </trkpt>
      <trkpt lat="43.12905" lon="2.24604">
        <ele>208.709351</ele>
        <time>2015-07-18T09:29:24Z</time>
      </trkpt>
      <trkpt lat="43.12903" lon="2.24603">
        <ele>208.878281</ele>
        <time>2015-07-18T09:29:25Z</time>
      </trkpt>
      <trkpt lat="43.12889" lon="2.24601">
        <ele>211.453506</ele>
        <time>2015-07-18T09:29:33Z</time>
      </trkpt>
      <trkpt lat="43.12877" lon="2.24595">
        <ele>213.186111</ele>
        <time>2015-07-18T09:29:42Z</time>
      </trkpt>
      <trkpt lat="43.12865" lon="2.24595">
        <ele>216.3918</ele>
        <time>2015-07-18T09:29:50Z</time>
      </trkpt>
      <trkpt lat="43.12862" lon="2.24598">
        <ele>217.620163</ele>
        <time>2015-07-18T09:29:52Z</time>
      </trkpt>
      <trkpt lat="43.12857" lon="2.246">
        <ele>219.228912</ele>
        <time>2015-07-18T09:29:56Z</time>
      </trkpt>
      <trkpt lat="43.12795" lon="2.24582">
        <ele>231.273682</ele>
        <time>2015-07-18T09:30:40Z</time>
      </trkpt>
      <trkpt lat="43.12779" lon="2.24572">
        <ele>232.17247</ele>
        <time>2015-07-18T09:30:53Z</time>
      </trkpt>
      <trkpt lat="43.12759" lon="2.2457">
        <ele>235.161118</ele>
        <time>2015-07-18T09:31:07Z</time>
      </trkpt>
      <trkpt lat="43.12658" lon="2.24618">
        <ele>253.885284</ele>
        <time>2015-07-18T09:32:13Z</time>
      </trkpt>
      <trkpt lat="43.1263" lon="2.24643">
        <ele>258.070007</ele>
        <time>2015-07-18T09:32:35Z</time>
      </trkpt>
      <trkpt lat="43.12623" lon="2.24652">
        <ele>259.128754</ele>
        <time>2015-07-18T09:32:41Z</time>
      </trkpt>
      <trkpt lat="43.12615" lon="2.24659">
        <ele>259.855011</ele>
        <time>2015-07-18T09:32:47Z</time>
      </trkpt>
      <trkpt lat="43.12564" lon="2.24678">
        <ele>266.976074</ele>
        <time>2015-07-18T09:33:15Z</time>
      </trkpt>
      <trkpt lat="43.12543" lon="2.24681">
        <ele>268.237579</ele>
        <time>2015-07-18T09:33:28Z</time>
      </trkpt>
      <trkpt lat="43.12533" lon="2.24677">
        <ele>269.311218</ele>
        <time>2015-07-18T09:33:35Z</time>
      </trkpt>
      <trkpt lat="43.12459" lon="2.2445">
        <ele>296.205414</ele>
        <time>2015-07-18T09:35:30Z</time>
      </trkpt>
      <trkpt lat="43.12345" lon="2.24299">
        <ele>300.862335</ele>
        <time>2015-07-18T09:36:30Z</time>
      </trkpt>
      <trkpt lat="43.12341" lon="2.24279">
        <ele>301.906586</ele>
        <time>2015-07-18T09:36:37Z</time>
      </trkpt>
      <trkpt lat="43.12319" lon="2.24246">
        <ele>301.013458</ele>
        <time>2015-07-18T09:36:52Z</time>
      </trkpt>
      <trkpt lat="43.12297" lon="2.24256">
        <ele>305.20929</ele>
        <time>2015-07-18T09:37:02Z</time>
      </trkpt>
      <trkpt lat="43.12295" lon="2.24262">
        <ele>306.465729</ele>
        <time>2015-07-18T09:37:04Z</time>
      </trkpt>
      <trkpt lat="43.12295" lon="2.24265">
        <ele>306.987549</ele>
        <time>2015-07-18T09:37:05Z</time>
      </trkpt>
      <trkpt lat="43.12296" lon="2.24274">
        <ele>308.022278</ele>
        <time>2015-07-18T09:37:08Z</time>
      </trkpt>
      <trkpt lat="43.12295" lon="2.24282">
        <ele>307.729279</ele>
        <time>2015-07-18T09:37:10Z</time>
      </trkpt>
      <trkpt lat="43.12294" lon="2.24284">
        <ele>307.806244</ele>
        <time>2015-07-18T09:37:11Z</time>
      </trkpt>
      <trkpt lat="43.12289" lon="2.24289">
        <ele>308.351257</ele>
        <time>2015-07-18T09:37:13Z</time>
      </trkpt>
      <trkpt lat="43.12279" lon="2.24294">
        <ele>309.830841</ele>
        <time>2015-07-18T09:37:17Z</time>
      </trkpt>
      <trkpt lat="43.12277" lon="2.24293">
        <ele>310.345642</ele>
        <time>2015-07-18T09:37:18Z</time>
      </trkpt>
      <trkpt lat="43.12249" lon="2.24256">
        <ele>313.713531</ele>
        <time>2015-07-18T09:37:36Z</time>
      </trkpt>
      <trkpt lat="43.12218" lon="2.24252">
        <ele>316.356567</ele>
        <time>2015-07-18T09:37:48Z</time>
      </trkpt>
      <trkpt lat="43.12189" lon="2.24266">
        <ele>320.816071</ele>
        <time>2015-07-18T09:38:01Z</time>
      </trkpt>
      <trkpt lat="43.12156" lon="2.24271">
        <ele>322.891571</ele>
        <time>2015-07-18T09:38:13Z</time>
      </trkpt>
      <trkpt lat="43.12121" lon="2.24257">
        <ele>323.237061</ele>
        <time>2015-07-18T09:38:35Z</time>
      </trkpt>
      <trkpt lat="43.12121" lon="2.2426">
        <ele>323.362</ele>
        <time>2015-07-18T09:38:43Z</time>
      </trkpt>
      <trkpt lat="43.12123" lon="2.24264">
        <ele>323.463196</ele>
        <time>2015-07-18T09:38:45Z</time>
      </trkpt>
      <trkpt lat="43.12123" lon="2.24269">
        <ele>323.637848</ele>
        <time>2015-07-18T09:38:47Z</time>
      </trkpt>
      <trkpt lat="43.12117" lon="2.24295">
        <ele>324.584991</ele>
        <time>2015-07-18T09:38:56Z</time>
      </trkpt>
      <trkpt lat="43.12121" lon="2.2432">
        <ele>325.362518</ele>
        <time>2015-07-18T09:39:04Z</time>
      </trkpt>
      <trkpt lat="43.12082" lon="2.25235">
        <ele>302.019501</ele>
        <time>2015-07-18T09:42:59Z</time>
      </trkpt>
      <trkpt lat="43.1198" lon="2.25424">
        <ele>304.981018</ele>
        <time>2015-07-18T09:43:53Z</time>
      </trkpt>
      <trkpt lat="43.11981" lon="2.25422">
        <ele>304.983795</ele>
        <time>2015-07-18T09:44:20Z</time>
      </trkpt>
      <trkpt lat="43.11979" lon="2.25415">
        <ele>304.959778</ele>
        <time>2015-07-18T09:44:23Z</time>
      </trkpt>
      <trkpt lat="43.11972" lon="2.25412">
        <ele>304.883209</ele>
        <time>2015-07-18T09:44:26Z</time>
      </trkpt>
      <trkpt lat="43.11959" lon="2.25411">
        <ele>304.733643</ele>
        <time>2015-07-18T09:44:31Z</time>
      </trkpt>
      <trkpt lat="43.11956" lon="2.25409">
        <ele>304.685944</ele>
        <time>2015-07-18T09:44:32Z</time>
      </trkpt>
      <trkpt lat="43.11947" lon="2.25394">
        <ele>304.393982</ele>
        <time>2015-07-18T09:44:48Z</time>
      </trkpt>
      <trkpt lat="43.11946" lon="2.25395">
        <ele>304.385193</ele>
        <time>2015-07-18T09:45:24Z</time>
      </trkpt>
      <trkpt lat="43.11939" lon="2.25382">
        <ele>304.066498</ele>
        <time>2015-07-18T09:45:28Z</time>
      </trkpt>
      <trkpt lat="43.1193" lon="2.25372">
        <ele>302.766113</ele>
        <time>2015-07-18T09:45:30Z</time>
      </trkpt>
      <trkpt lat="43.11879" lon="2.25338">
        <ele>298.385803</ele>
        <time>2015-07-18T09:45:38Z</time>
      </trkpt>
      <trkpt lat="43.11866" lon="2.25334">
        <ele>297.184937</ele>
        <time>2015-07-18T09:45:41Z</time>
      </trkpt>
      <trkpt lat="43.1186" lon="2.25335">
        <ele>296.702148</ele>
        <time>2015-07-18T09:45:42Z</time>
      </trkpt>
      <trkpt lat="43.1182" lon="2.25361">
        <ele>288.997498</ele>
        <time>2015-07-18T09:45:48Z</time>
      </trkpt>
      <trkpt lat="43.11808" lon="2.25363">
        <ele>286.318756</ele>
        <time>2015-07-18T09:45:51Z</time>
      </trkpt>
      <trkpt lat="43.11736" lon="2.25348">
        <ele>279.828766</ele>
        <time>2015-07-18T09:45:59Z</time>
      </trkpt>
      <trkpt lat="43.11627" lon="2.25346">
        <ele>267.478577</ele>
        <time>2015-07-18T09:46:10Z</time>
      </trkpt>
      <trkpt lat="43.11619" lon="2.25349">
        <ele>266.516235</ele>
        <time>2015-07-18T09:46:11Z</time>
      </trkpt>
      <trkpt lat="43.11458" lon="2.25463">
        <ele>252.403671</ele>
        <time>2015-07-18T09:46:32Z</time>
      </trkpt>
      <trkpt lat="43.11432" lon="2.25492">
        <ele>247.612396</ele>
        <time>2015-07-18T09:46:39Z</time>
      </trkpt>
      <trkpt lat="43.11419" lon="2.25498">
        <ele>245.746201</ele>
        <time>2015-07-18T09:46:41Z</time>
      </trkpt>
      <trkpt lat="43.11405" lon="2.255">
        <ele>243.7827</ele>
        <time>2015-07-18T09:46:43Z</time>
      </trkpt>
      <trkpt lat="43.11398" lon="2.25499">
        <ele>242.836807</ele>
        <time>2015-07-18T09:46:44Z</time>
      </trkpt>
      <trkpt lat="43.11392" lon="2.25497">
        <ele>241.675461</ele>
        <time>2015-07-18T09:46:45Z</time>
      </trkpt>
      <trkpt lat="43.11386" lon="2.25493">
        <ele>240.784744</ele>
        <time>2015-07-18T09:46:46Z</time>
      </trkpt>
      <trkpt lat="43.11381" lon="2.25487">
        <ele>240.200958</ele>
        <time>2015-07-18T09:46:47Z</time>
      </trkpt>
      <trkpt lat="43.11292" lon="2.25284">
        <ele>225.585007</ele>
        <time>2015-07-18T09:47:12Z</time>
      </trkpt>
      <trkpt lat="43.11291" lon="2.25269">
        <ele>223.710007</ele>
        <time>2015-07-18T09:47:14Z</time>
      </trkpt>
      <trkpt lat="43.11306" lon="2.25174">
        <ele>211.357178</ele>
        <time>2015-07-18T09:47:27Z</time>
      </trkpt>
      <trkpt lat="43.11303" lon="2.25161">
        <ele>208.698761</ele>
        <time>2015-07-18T09:47:29Z</time>
      </trkpt>
      <trkpt lat="43.11286" lon="2.25134">
        <ele>203.285004</ele>
        <time>2015-07-18T09:47:34Z</time>
      </trkpt>
      <trkpt lat="43.11281" lon="2.25132">
        <ele>203.005005</ele>
        <time>2015-07-18T09:47:35Z</time>
      </trkpt>
      <trkpt lat="43.11265" lon="2.25132">
        <ele>203.300003</ele>
        <time>2015-07-18T09:47:38Z</time>
      </trkpt>
      <trkpt lat="43.11239" lon="2.25141">
        <ele>202.246277</ele>
        <time>2015-07-18T09:47:42Z</time>
      </trkpt>
      <trkpt lat="43.11206" lon="2.25146">
        <ele>198.372498</ele>
        <time>2015-07-18T09:47:47Z</time>
      </trkpt>
      <trkpt lat="43.11194" lon="2.25152">
        <ele>197.202499</ele>
        <time>2015-07-18T09:47:51Z</time>
      </trkpt>
      <trkpt lat="43.11179" lon="2.25174">
        <ele>198.067505</ele>
        <time>2015-07-18T09:47:56Z</time>
      </trkpt>
      <trkpt lat="43.11171" lon="2.25165">
        <ele>195.656998</ele>
        <time>2015-07-18T09:48:00Z</time>
      </trkpt>
      <trkpt lat="43.11167" lon="2.2508">
        <ele>182.917496</ele>
        <time>2015-07-18T09:48:12Z</time>
      </trkpt>
      <trkpt lat="43.11164" lon="2.25077">
        <ele>182.160004</ele>
        <time>2015-07-18T09:48:13Z</time>
      </trkpt>
      <trkpt lat="43.11159" lon="2.25075">
        <ele>181.4375</ele>
        <time>2015-07-18T09:48:14Z</time>
      </trkpt>
      <trkpt lat="43.11099" lon="2.25081">
        <ele>176.540802</ele>
        <time>2015-07-18T09:48:29Z</time>
      </trkpt>
      <trkpt lat="43.11052" lon="2.25117">
        <ele>176.201324</ele>
        <time>2015-07-18T09:49:09Z</time>
      </trkpt>
      <trkpt lat="43.11021" lon="2.25155">
        <ele>175.448502</ele>
        <time>2015-07-18T09:49:20Z</time>
      </trkpt>
      <trkpt lat="43.10945" lon="2.25168">
        <ele>176.796158</ele>
        <time>2015-07-18T09:49:48Z</time>
      </trkpt>
      <trkpt lat="43.10912" lon="2.25186">
        <ele>177.392242</ele>
        <time>2015-07-18T09:50:03Z</time>
      </trkpt>
      <trkpt lat="43.10756" lon="2.25224">
        <ele>182.378403</ele>
        <time>2015-07-18T09:51:01Z</time>
      </trkpt>
      <trkpt lat="43.10678" lon="2.25154">
        <ele>172.938751</ele>
        <time>2015-07-18T09:51:36Z</time>
      </trkpt>
      <trkpt lat="43.10672" lon="2.25145">
        <ele>171.987503</ele>
        <time>2015-07-18T09:51:37Z</time>
      </trkpt>
      <trkpt lat="43.1066" lon="2.25111">
        <ele>170.446045</ele>
        <time>2015-07-18T09:51:40Z</time>
      </trkpt>
      <trkpt lat="43.10621" lon="2.24698">
        <ele>177.906067</ele>
        <time>2015-07-18T09:52:43Z</time>
      </trkpt>
      <trkpt lat="43.10508" lon="2.24427">
        <ele>171.805008</ele>
        <time>2015-07-18T09:53:19Z</time>
      </trkpt>
      <trkpt lat="43.10506" lon="2.24414">
        <ele>172.176254</ele>
        <time>2015-07-18T09:53:21Z</time>
      </trkpt>
      <trkpt lat="43.10479" lon="2.24347">
        <ele>170.979996</ele>
        <time>2015-07-18T09:53:33Z</time>
      </trkpt>
      <trkpt lat="43.10477" lon="2.24346">
        <ele>170.732498</ele>
        <time>2015-07-18T09:53:44Z</time>
      </trkpt>
      <trkpt lat="43.10476" lon="2.24347">
        <ele>170.535004</ele>
        <time>2015-07-18T09:54:15Z</time>
      </trkpt>
      <trkpt lat="43.1048" lon="2.24349">
        <ele>171.020004</ele>
        <time>2015-07-18T09:54:18Z</time>
      </trkpt>
      <trkpt lat="43.10483" lon="2.24349">
        <ele>171.389999</ele>
        <time>2015-07-18T09:54:19Z</time>
      </trkpt>
      <trkpt lat="43.10488" lon="2.24342">
        <ele>172.335007</ele>
        <time>2015-07-18T09:54:23Z</time>
      </trkpt>
      <trkpt lat="43.10537" lon="2.24319">
        <ele>178.642639</ele>
        <time>2015-07-18T09:54:49Z</time>
      </trkpt>
      <trkpt lat="43.10542" lon="2.24315">
        <ele>179.115372</ele>
        <time>2015-07-18T09:55:05Z</time>
      </trkpt>
      <trkpt lat="43.10542" lon="2.2431">
        <ele>179.227768</ele>
        <time>2015-07-18T09:55:22Z</time>
      </trkpt>
      <trkpt lat="43.10565" lon="2.24262">
        <ele>183.723633</ele>
        <time>2015-07-18T09:55:45Z</time>
      </trkpt>
      <trkpt lat="43.10567" lon="2.24233">
        <ele>186.506729</ele>
        <time>2015-07-18T09:55:56Z</time>
      </trkpt>
      <trkpt lat="43.10563" lon="2.2422">
        <ele>187.34967</ele>
        <time>2015-07-18T09:56:01Z</time>
      </trkpt>
      <trkpt lat="43.10582" lon="2.24082">
        <ele>198.342285</ele>
        <time>2015-07-18T09:56:54Z</time>
      </trkpt>
      <trkpt lat="43.10581" lon="2.24077">
        <ele>198.35202</ele>
        <time>2015-07-18T09:56:57Z</time>
      </trkpt>
      <trkpt lat="43.10582" lon="2.24052">
        <ele>199.650589</ele>
        <time>2015-07-18T09:57:07Z</time>
      </trkpt>
      <trkpt lat="43.10581" lon="2.24049">
        <ele>199.654007</ele>
        <time>2015-07-18T09:57:08Z</time>
      </trkpt>
      <trkpt lat="43.10591" lon="2.23984">
        <ele>202.247498</ele>
        <time>2015-07-18T09:57:29Z</time>
      </trkpt>
      <trkpt lat="43.1061" lon="2.23944">
        <ele>207.519394</ele>
        <time>2015-07-18T09:57:44Z</time>
      </trkpt>
      <trkpt lat="43.10615" lon="2.23911">
        <ele>209.134338</ele>
        <time>2015-07-18T09:57:58Z</time>
      </trkpt>
      <trkpt lat="43.10634" lon="2.23863">
        <ele>213.74942</ele>
        <time>2015-07-18T09:58:24Z</time>
      </trkpt>
      <trkpt lat="43.10636" lon="2.23864">
        <ele>214.198532</ele>
        <time>2015-07-18T09:59:00Z</time>
      </trkpt>
      <trkpt lat="43.10639" lon="2.23856">
        <ele>214.847733</ele>
        <time>2015-07-18T09:59:18Z</time>
      </trkpt>
      <trkpt lat="43.10766" lon="2.2366">
        <ele>241.357605</ele>
        <time>2015-07-18T10:01:00Z</time>
      </trkpt>
      <trkpt lat="43.10779" lon="2.23654">
        <ele>244.779419</ele>
        <time>2015-07-18T10:01:36Z</time>
      </trkpt>
      <trkpt lat="43.10778" lon="2.23653">
        <ele>244.505508</ele>
        <time>2015-07-18T10:01:53Z</time>
      </trkpt>
      <trkpt lat="43.10779" lon="2.23654">
        <ele>244.664719</ele>
        <time>2015-07-18T10:02:22Z</time>
      </trkpt>
      <trkpt lat="43.10781" lon="2.23653">
        <ele>245.238297</ele>
        <time>2015-07-18T10:02:23Z</time>
      </trkpt>
      <trkpt lat="43.10782" lon="2.23692">
        <ele>246.001373</ele>
        <time>2015-07-18T10:03:13Z</time>
      </trkpt>
      <trkpt lat="43.10792" lon="2.23708">
        <ele>249.134399</ele>
        <time>2015-07-18T10:03:23Z</time>
      </trkpt>
      <trkpt lat="43.10804" lon="2.2372">
        <ele>252.743546</ele>
        <time>2015-07-18T10:03:33Z</time>
      </trkpt>
      <trkpt lat="43.10811" lon="2.23722">
        <ele>255.140808</ele>
        <time>2015-07-18T10:03:38Z</time>
      </trkpt>
      <trkpt lat="43.10855" lon="2.2375">
        <ele>263.818909</ele>
        <time>2015-07-18T10:04:16Z</time>
      </trkpt>
      <trkpt lat="43.10856" lon="2.23749">
        <ele>264.061584</ele>
        <time>2015-07-18T10:04:51Z</time>
      </trkpt>
      <trkpt lat="43.10873" lon="2.23767">
        <ele>267.912445</ele>
        <time>2015-07-18T10:05:03Z</time>
      </trkpt>
      <trkpt lat="43.10877" lon="2.23782">
        <ele>269.177887</ele>
        <time>2015-07-18T10:05:09Z</time>
      </trkpt>
      <trkpt lat="43.10867" lon="2.23907">
        <ele>276.079254</ele>
        <time>2015-07-18T10:05:57Z</time>
      </trkpt>
      <trkpt lat="43.10899" lon="2.24057">
        <ele>282.229614</ele>
        <time>2015-07-18T10:06:46Z</time>
      </trkpt>
      <trkpt lat="43.10928" lon="2.24093">
        <ele>285.463135</ele>
        <time>2015-07-18T10:06:59Z</time>
      </trkpt>
      <trkpt lat="43.10957" lon="2.24106">
        <ele>288.57373</ele>
        <time>2015-07-18T10:07:11Z</time>
      </trkpt>
      <trkpt lat="43.10975" lon="2.24104">
        <ele>290.886292</ele>
        <time>2015-07-18T10:07:19Z</time>
      </trkpt>
      <trkpt lat="43.1099" lon="2.24095">
        <ele>293.409576</ele>
        <time>2015-07-18T10:07:29Z</time>
      </trkpt>
      <trkpt lat="43.1099" lon="2.2409">
        <ele>293.993835</ele>
        <time>2015-07-18T10:07:31Z</time>
      </trkpt>
      <trkpt lat="43.10987" lon="2.24083">
        <ele>294.428558</ele>
        <time>2015-07-18T10:07:35Z</time>
      </trkpt>
      <trkpt lat="43.10973" lon="2.24068">
        <ele>295.201935</ele>
        <time>2015-07-18T10:07:46Z</time>
      </trkpt>
      <trkpt lat="43.10966" lon="2.24049">
        <ele>297.140472</ele>
        <time>2015-07-18T10:07:56Z</time>
      </trkpt>
      <trkpt lat="43.10965" lon="2.24041">
        <ele>298.227844</ele>
        <time>2015-07-18T10:08:00Z</time>
      </trkpt>
      <trkpt lat="43.11041" lon="2.23618">
        <ele>301.575165</ele>
        <time>2015-07-18T10:09:33Z</time>
      </trkpt>
      <trkpt lat="43.11047" lon="2.23604">
        <ele>301.566406</ele>
        <time>2015-07-18T10:09:36Z</time>
      </trkpt>
      <trkpt lat="43.11076" lon="2.23569">
        <ele>301.708618</ele>
        <time>2015-07-18T10:09:46Z</time>
      </trkpt>
      <trkpt lat="43.11094" lon="2.2356">
        <ele>300.264526</ele>
        <time>2015-07-18T10:09:50Z</time>
      </trkpt>
      <trkpt lat="43.11098" lon="2.23556">
        <ele>299.793701</ele>
        <time>2015-07-18T10:09:51Z</time>
      </trkpt>
      <trkpt lat="43.11105" lon="2.23545">
        <ele>299.691071</ele>
        <time>2015-07-18T10:09:53Z</time>
      </trkpt>
      <trkpt lat="43.11124" lon="2.23466">
        <ele>299.008514</ele>
        <time>2015-07-18T10:10:03Z</time>
      </trkpt>
      <trkpt lat="43.11118" lon="2.23417">
        <ele>298.31543</ele>
        <time>2015-07-18T10:10:08Z</time>
      </trkpt>
      <trkpt lat="43.11135" lon="2.23352">
        <ele>292.48996</ele>
        <time>2015-07-18T10:10:16Z</time>
      </trkpt>
      <trkpt lat="43.11134" lon="2.23345">
        <ele>292.465942</ele>
        <time>2015-07-18T10:10:17Z</time>
      </trkpt>
      <trkpt lat="43.11131" lon="2.2334">
        <ele>292.795593</ele>
        <time>2015-07-18T10:10:18Z</time>
      </trkpt>
      <trkpt lat="43.11127" lon="2.23337">
        <ele>293.399994</ele>
        <time>2015-07-18T10:10:19Z</time>
      </trkpt>
      <trkpt lat="43.11123" lon="2.23336">
        <ele>294.029999</ele>
        <time>2015-07-18T10:10:20Z</time>
      </trkpt>
      <trkpt lat="43.11093" lon="2.23344">
        <ele>298.987488</ele>
        <time>2015-07-18T10:10:28Z</time>
      </trkpt>
      <trkpt lat="43.11085" lon="2.23345">
        <ele>300.32251</ele>
        <time>2015-07-18T10:10:30Z</time>
      </trkpt>
      <trkpt lat="43.11081" lon="2.23342">
        <ele>300.502045</ele>
        <time>2015-07-18T10:10:31Z</time>
      </trkpt>
      <trkpt lat="43.11078" lon="2.23339">
        <ele>300.391815</ele>
        <time>2015-07-18T10:10:32Z</time>
      </trkpt>
      <trkpt lat="43.11075" lon="2.23335">
        <ele>300.290314</ele>
        <time>2015-07-18T10:10:33Z</time>
      </trkpt>
      <trkpt lat="43.11073" lon="2.23326">
        <ele>300.108124</ele>
        <time>2015-07-18T10:10:35Z</time>
      </trkpt>
      <trkpt lat="43.11072" lon="2.23322">
        <ele>300.017365</ele>
        <time>2015-07-18T10:10:36Z</time>
      </trkpt>
      <trkpt lat="43.11074" lon="2.23313">
        <ele>299.769684</ele>
        <time>2015-07-18T10:10:38Z</time>
      </trkpt>
      <trkpt lat="43.11211" lon="2.23137">
        <ele>291.091003</ele>
        <time>2015-07-18T10:11:12Z</time>
      </trkpt>
      <trkpt lat="43.11221" lon="2.23129">
        <ele>291.016235</ele>
        <time>2015-07-18T10:11:14Z</time>
      </trkpt>
      <trkpt lat="43.11262" lon="2.2311">
        <ele>290.029236</ele>
        <time>2015-07-18T10:11:23Z</time>
      </trkpt>
      <trkpt lat="43.11279" lon="2.23107">
        <ele>289.289612</ele>
        <time>2015-07-18T10:11:27Z</time>
      </trkpt>
      <trkpt lat="43.11816" lon="2.22751">
        <ele>290.309387</ele>
        <time>2015-07-18T10:13:40Z</time>
      </trkpt>
      <trkpt lat="43.12178" lon="2.22649">
        <ele>302.44162</ele>
        <time>2015-07-18T10:15:23Z</time>
      </trkpt>
      <trkpt lat="43.12205" lon="2.22645">
        <ele>303.325073</ele>
        <time>2015-07-18T10:15:30Z</time>
      </trkpt>
      <trkpt lat="43.12455" lon="2.2253">
        <ele>309.797485</ele>
        <time>2015-07-18T10:16:33Z</time>
      </trkpt>
      <trkpt lat="43.125" lon="2.22498">
        <ele>310.796234</ele>
        <time>2015-07-18T10:16:46Z</time>
      </trkpt>
      <trkpt lat="43.12512" lon="2.22481">
        <ele>310.47821</ele>
        <time>2015-07-18T10:16:50Z</time>
      </trkpt>
      <trkpt lat="43.12689" lon="2.21938">
        <ele>300.002655</ele>
        <time>2015-07-18T10:18:04Z</time>
      </trkpt>
      <trkpt lat="43.12702" lon="2.21926">
        <ele>300.845001</ele>
        <time>2015-07-18T10:18:07Z</time>
      </trkpt>
      <trkpt lat="43.12706" lon="2.21924">
        <ele>300.996246</ele>
        <time>2015-07-18T10:18:08Z</time>
      </trkpt>
      <trkpt lat="43.12714" lon="2.21922">
        <ele>301.33374</ele>
        <time>2015-07-18T10:18:10Z</time>
      </trkpt>
      <trkpt lat="43.12794" lon="2.21924">
        <ele>301.423462</ele>
        <time>2015-07-18T10:18:27Z</time>
      </trkpt>
      <trkpt lat="43.12829" lon="2.21935">
        <ele>300.584503</ele>
        <time>2015-07-18T10:18:33Z</time>
      </trkpt>
      <trkpt lat="43.12845" lon="2.21935">
        <ele>300.394714</ele>
        <time>2015-07-18T10:18:36Z</time>
      </trkpt>
      <trkpt lat="43.12855" lon="2.21931">
        <ele>300.081604</ele>
        <time>2015-07-18T10:18:38Z</time>
      </trkpt>
      <trkpt lat="43.13082" lon="2.21714">
        <ele>300.384918</ele>
        <time>2015-07-18T10:19:30Z</time>
      </trkpt>
      <trkpt lat="43.13217" lon="2.21649">
        <ele>296.626495</ele>
        <time>2015-07-18T10:19:56Z</time>
      </trkpt>
      <trkpt lat="43.13242" lon="2.21242">
        <ele>271.229797</ele>
        <time>2015-07-18T10:20:38Z</time>
      </trkpt>
      <trkpt lat="43.13308" lon="2.21119">
        <ele>257.695465</ele>
        <time>2015-07-18T10:20:50Z</time>
      </trkpt>
      <trkpt lat="43.13376" lon="2.21055">
        <ele>258.846405</ele>
        <time>2015-07-18T10:21:01Z</time>
      </trkpt>
      <trkpt lat="43.13442" lon="2.20913">
        <ele>248.721649</ele>
        <time>2015-07-18T10:21:25Z</time>
      </trkpt>
      <trkpt lat="43.13448" lon="2.20906">
        <ele>247.490433</ele>
        <time>2015-07-18T10:21:26Z</time>
      </trkpt>
      <trkpt lat="43.13456" lon="2.20902">
        <ele>246.636139</ele>
        <time>2015-07-18T10:21:27Z</time>
      </trkpt>
      <trkpt lat="43.13522" lon="2.20882">
        <ele>245.481796</ele>
        <time>2015-07-18T10:21:37Z</time>
      </trkpt>
      <trkpt lat="43.13554" lon="2.20888">
        <ele>248.559998</ele>
        <time>2015-07-18T10:21:45Z</time>
      </trkpt>
      <trkpt lat="43.13601" lon="2.20876">
        <ele>246.857071</ele>
        <time>2015-07-18T10:21:55Z</time>
      </trkpt>
      <trkpt lat="43.13609" lon="2.20878">
        <ele>247.356903</ele>
        <time>2015-07-18T10:21:56Z</time>
      </trkpt>
      <trkpt lat="43.13622" lon="2.20888">
        <ele>249.213562</ele>
        <time>2015-07-18T10:21:58Z</time>
      </trkpt>
      <trkpt lat="43.1363" lon="2.2089">
        <ele>249.652893</ele>
        <time>2015-07-18T10:21:59Z</time>
      </trkpt>
      <trkpt lat="43.13642" lon="2.20889">
        <ele>249.460449</ele>
        <time>2015-07-18T10:22:01Z</time>
      </trkpt>
      <trkpt lat="43.13714" lon="2.20793">
        <ele>245.542923</ele>
        <time>2015-07-18T10:22:22Z</time>
      </trkpt>
      <trkpt lat="43.13744" lon="2.20779">
        <ele>245.804565</ele>
        <time>2015-07-18T10:22:27Z</time>
      </trkpt>
      <trkpt lat="43.13749" lon="2.20773">
        <ele>246.185242</ele>
        <time>2015-07-18T10:22:28Z</time>
      </trkpt>
      <trkpt lat="43.1376" lon="2.20746">
        <ele>248.151398</ele>
        <time>2015-07-18T10:22:32Z</time>
      </trkpt>
      <trkpt lat="43.13764" lon="2.20741">
        <ele>248.311401</ele>
        <time>2015-07-18T10:22:33Z</time>
      </trkpt>
      <trkpt lat="43.13771" lon="2.20737">
        <ele>248.373001</ele>
        <time>2015-07-18T10:22:35Z</time>
      </trkpt>
      <trkpt lat="43.13773" lon="2.20734">
        <ele>248.339752</ele>
        <time>2015-07-18T10:22:36Z</time>
      </trkpt>
      <trkpt lat="43.13773" lon="2.20732">
        <ele>248.324951</ele>
        <time>2015-07-18T10:22:37Z</time>
      </trkpt>
      <trkpt lat="43.1377" lon="2.20731">
        <ele>248.366302</ele>
        <time>2015-07-18T10:22:38Z</time>
      </trkpt>
      <trkpt lat="43.13685" lon="2.20746">
        <ele>247.912811</ele>
        <time>2015-07-18T10:22:59Z</time>
      </trkpt>
      <trkpt lat="43.1368" lon="2.20745">
        <ele>248.197906</ele>
        <time>2015-07-18T10:23:00Z</time>
      </trkpt>
      <trkpt lat="43.13676" lon="2.20741">
        <ele>248.707672</ele>
        <time>2015-07-18T10:23:01Z</time>
      </trkpt>
      <trkpt lat="43.13668" lon="2.20722">
        <ele>251.172134</ele>
        <time>2015-07-18T10:23:05Z</time>
      </trkpt>
      <trkpt lat="43.13663" lon="2.20674">
        <ele>255.974106</ele>
        <time>2015-07-18T10:23:15Z</time>
      </trkpt>
      <trkpt lat="43.13442" lon="2.20345">
        <ele>260.251862</ele>
        <time>2015-07-18T10:24:37Z</time>
      </trkpt>
      <trkpt lat="43.13481" lon="2.20223">
        <ele>235.75119</ele>
        <time>2015-07-18T10:24:58Z</time>
      </trkpt>
      <trkpt lat="43.13487" lon="2.20196">
        <ele>236.848099</ele>
        <time>2015-07-18T10:25:03Z</time>
      </trkpt>
      <trkpt lat="43.13485" lon="2.20194">
        <ele>236.812851</ele>
        <time>2015-07-18T10:25:04Z</time>
      </trkpt>
      <trkpt lat="43.13481" lon="2.20193">
        <ele>236.72934</ele>
        <time>2015-07-18T10:25:05Z</time>
      </trkpt>
      <trkpt lat="43.13479" lon="2.20194">
        <ele>236.602509</ele>
        <time>2015-07-18T10:25:06Z</time>
      </trkpt>
      <trkpt lat="43.13449" lon="2.20221">
        <ele>233.950378</ele>
        <time>2015-07-18T10:25:14Z</time>
      </trkpt>
      <trkpt lat="43.13444" lon="2.20223">
        <ele>233.940369</ele>
        <time>2015-07-18T10:25:15Z</time>
      </trkpt>
      <trkpt lat="43.1343" lon="2.20225">
        <ele>234.386719</ele>
        <time>2015-07-18T10:25:18Z</time>
      </trkpt>
      <trkpt lat="43.13406" lon="2.20219">
        <ele>236.165771</ele>
        <time>2015-07-18T10:25:28Z</time>
      </trkpt>
      <trkpt lat="43.13393" lon="2.20211">
        <ele>237.685745</ele>
        <time>2015-07-18T10:25:36Z</time>
      </trkpt>
      <trkpt lat="43.13344" lon="2.20137">
        <ele>248.629547</ele>
        <time>2015-07-18T10:26:16Z</time>
      </trkpt>
      <trkpt lat="43.13329" lon="2.20098">
        <ele>252.058487</ele>
        <time>2015-07-18T10:26:30Z</time>
      </trkpt>
      <trkpt lat="43.13251" lon="2.19996">
        <ele>255.519058</ele>
        <time>2015-07-18T10:27:18Z</time>
      </trkpt>
      <trkpt lat="43.1322" lon="2.19904">
        <ele>251.10936</ele>
        <time>2015-07-18T10:27:39Z</time>
      </trkpt>
      <trkpt lat="43.13279" lon="2.1982">
        <ele>256.194611</ele>
        <time>2015-07-18T10:28:05Z</time>
      </trkpt>
      <trkpt lat="43.13588" lon="2.19606">
        <ele>264.583649</ele>
        <time>2015-07-18T10:29:45Z</time>
      </trkpt>
      <trkpt lat="43.13722" lon="2.19402">
        <ele>251.270355</ele>
        <time>2015-07-18T10:30:07Z</time>
      </trkpt>
      <trkpt lat="43.13723" lon="2.19395">
        <ele>250.304749</ele>
        <time>2015-07-18T10:30:08Z</time>
      </trkpt>
      <trkpt lat="43.13457" lon="2.18898">
        <ele>248.001251</ele>
        <time>2015-07-18T10:31:44Z</time>
      </trkpt>
      <trkpt lat="43.13451" lon="2.18866">
        <ele>246.344131</ele>
        <time>2015-07-18T10:31:46Z</time>
      </trkpt>
      <trkpt lat="43.13466" lon="2.18212">
        <ele>228.880783</ele>
        <time>2015-07-18T10:32:59Z</time>
      </trkpt>
      <trkpt lat="43.13751" lon="2.17652">
        <ele>245.466873</ele>
        <time>2015-07-18T10:35:02Z</time>
      </trkpt>
      <trkpt lat="43.13757" lon="2.17624">
        <ele>243.664307</ele>
        <time>2015-07-18T10:35:05Z</time>
      </trkpt>
      <trkpt lat="43.13753" lon="2.17551">
        <ele>240.528702</ele>
        <time>2015-07-18T10:35:12Z</time>
      </trkpt>
      <trkpt lat="43.13747" lon="2.17533">
        <ele>239.919647</ele>
        <time>2015-07-18T10:35:14Z</time>
      </trkpt>
      <trkpt lat="43.13715" lon="2.17492">
        <ele>239.360001</ele>
        <time>2015-07-18T10:35:21Z</time>
      </trkpt>
      <trkpt lat="43.13713" lon="2.17485">
        <ele>239.005341</ele>
        <time>2015-07-18T10:35:22Z</time>
      </trkpt>
      <trkpt lat="43.13714" lon="2.17478">
        <ele>238.490021</ele>
        <time>2015-07-18T10:35:23Z</time>
      </trkpt>
      <trkpt lat="43.13754" lon="2.1741">
        <ele>237.536591</ele>
        <time>2015-07-18T10:35:35Z</time>
      </trkpt>
      <trkpt lat="43.13754" lon="2.17404">
        <ele>237.598724</ele>
        <time>2015-07-18T10:35:36Z</time>
      </trkpt>
      <trkpt lat="43.13739" lon="2.17359">
        <ele>238.887405</ele>
        <time>2015-07-18T10:35:44Z</time>
      </trkpt>
      <trkpt lat="43.13743" lon="2.171">
        <ele>244.203751</ele>
        <time>2015-07-18T10:36:40Z</time>
      </trkpt>
      <trkpt lat="43.13934" lon="2.16891">
        <ele>260.310516</ele>
        <time>2015-07-18T10:37:57Z</time>
      </trkpt>
      <trkpt lat="43.1394" lon="2.16874">
        <ele>260.221588</ele>
        <time>2015-07-18T10:38:02Z</time>
      </trkpt>
      <trkpt lat="43.13938" lon="2.16864">
        <ele>259.547913</ele>
        <time>2015-07-18T10:38:04Z</time>
      </trkpt>
      <trkpt lat="43.13888" lon="2.16775">
        <ele>256.164429</ele>
        <time>2015-07-18T10:38:19Z</time>
      </trkpt>
      <trkpt lat="43.13792" lon="2.16701">
        <ele>261.974487</ele>
        <time>2015-07-18T10:38:42Z</time>
      </trkpt>
      <trkpt lat="43.13772" lon="2.1668">
        <ele>260.607147</ele>
        <time>2015-07-18T10:38:47Z</time>
      </trkpt>
      <trkpt lat="43.13702" lon="2.16535">
        <ele>253.372345</ele>
        <time>2015-07-18T10:39:07Z</time>
      </trkpt>
      <trkpt lat="43.13512" lon="2.16365">
        <ele>246.946899</ele>
        <time>2015-07-18T10:39:55Z</time>
      </trkpt>
      <trkpt lat="43.13513" lon="2.16362">
        <ele>246.979004</ele>
        <time>2015-07-18T10:40:18Z</time>
      </trkpt>
      <trkpt lat="43.13518" lon="2.1637">
        <ele>246.901505</ele>
        <time>2015-07-18T10:40:28Z</time>
      </trkpt>
      <trkpt lat="43.13537" lon="2.16391">
        <ele>246.915619</ele>
        <time>2015-07-18T10:40:36Z</time>
      </trkpt>
      <trkpt lat="43.13541" lon="2.16392">
        <ele>246.956009</ele>
        <time>2015-07-18T10:40:37Z</time>
      </trkpt>
      <trkpt lat="43.13544" lon="2.16391">
        <ele>246.997498</ele>
        <time>2015-07-18T10:40:38Z</time>
      </trkpt>
      <trkpt lat="43.13548" lon="2.16388">
        <ele>247.028595</ele>
        <time>2015-07-18T10:40:39Z</time>
      </trkpt>
      <trkpt lat="43.1355" lon="2.16384">
        <ele>247.040985</ele>
        <time>2015-07-18T10:40:41Z</time>
      </trkpt>
      <trkpt lat="43.13555" lon="2.16381">
        <ele>247.080994</ele>
        <time>2015-07-18T10:40:46Z</time>
      </trkpt>
      <trkpt lat="43.13569" lon="2.16385">
        <ele>247.220398</ele>
        <time>2015-07-18T10:40:50Z</time>
      </trkpt>
      <trkpt lat="43.13625" lon="2.16375">
        <ele>247.432861</ele>
        <time>2015-07-18T10:41:05Z</time>
      </trkpt>
      <trkpt lat="43.1374" lon="2.16391">
        <ele>249.238754</ele>
        <time>2015-07-18T10:41:39Z</time>
      </trkpt>
      <trkpt lat="43.13744" lon="2.1639">
        <ele>249.375</ele>
        <time>2015-07-18T10:41:49Z</time>
      </trkpt>
      <trkpt lat="43.13748" lon="2.1638">
        <ele>249.038742</ele>
        <time>2015-07-18T10:41:54Z</time>
      </trkpt>
      <trkpt lat="43.13742" lon="2.16364">
        <ele>247.956253</ele>
        <time>2015-07-18T10:41:58Z</time>
      </trkpt>
      <trkpt lat="43.13723" lon="2.1636">
        <ele>246.994949</ele>
        <time>2015-07-18T10:42:02Z</time>
      </trkpt>
      <trkpt lat="43.13716" lon="2.16285">
        <ele>242.295319</ele>
        <time>2015-07-18T10:42:22Z</time>
      </trkpt>
      <trkpt lat="43.13748" lon="2.16199">
        <ele>242.257874</ele>
        <time>2015-07-18T10:42:45Z</time>
      </trkpt>
      <trkpt lat="43.13775" lon="2.16189">
        <ele>244.881561</ele>
        <time>2015-07-18T10:42:53Z</time>
      </trkpt>
      <trkpt lat="43.13787" lon="2.1619">
        <ele>246.174515</ele>
        <time>2015-07-18T10:42:59Z</time>
      </trkpt>
      <trkpt lat="43.13789" lon="2.16185">
        <ele>246.308945</ele>
        <time>2015-07-18T10:43:03Z</time>
      </trkpt>
      <trkpt lat="43.13774" lon="2.1619">
        <ele>244.717804</ele>
        <time>2015-07-18T10:43:11Z</time>
      </trkpt>
      <trkpt lat="43.13771" lon="2.16187">
        <ele>244.412521</ele>
        <time>2015-07-18T10:43:17Z</time>
      </trkpt>
      <trkpt lat="43.13707" lon="2.16202">
        <ele>238.707504</ele>
        <time>2015-07-18T10:43:38Z</time>
      </trkpt>
      <trkpt lat="43.13694" lon="2.16196">
        <ele>237.660004</ele>
        <time>2015-07-18T10:43:41Z</time>
      </trkpt>
      <trkpt lat="43.13679" lon="2.16181">
        <ele>236.168701</ele>
        <time>2015-07-18T10:43:45Z</time>
      </trkpt>
      <trkpt lat="43.13676" lon="2.16112">
        <ele>232.722504</ele>
        <time>2015-07-18T10:43:57Z</time>
      </trkpt>
      <trkpt lat="43.13678" lon="2.16107">
        <ele>232.697495</ele>
        <time>2015-07-18T10:43:58Z</time>
      </trkpt>
      <trkpt lat="43.13683" lon="2.161">
        <ele>232.932495</ele>
        <time>2015-07-18T10:44:00Z</time>
      </trkpt>
      <trkpt lat="43.13675" lon="2.15963">
        <ele>227.287506</ele>
        <time>2015-07-18T10:44:22Z</time>
      </trkpt>
      <trkpt lat="43.13698" lon="2.15937">
        <ele>229.218475</ele>
        <time>2015-07-18T10:44:28Z</time>
      </trkpt>
      <trkpt lat="43.13736" lon="2.1594">
        <ele>235.629395</ele>
        <time>2015-07-18T10:44:36Z</time>
      </trkpt>
      <trkpt lat="43.13742" lon="2.15933">
        <ele>236.787643</ele>
        <time>2015-07-18T10:44:44Z</time>
      </trkpt>
      <trkpt lat="43.13742" lon="2.15934">
        <ele>236.765228</ele>
        <time>2015-07-18T10:45:11Z</time>
      </trkpt>
      <trkpt lat="43.13742" lon="2.1593">
        <ele>236.707199</ele>
        <time>2015-07-18T10:45:28Z</time>
      </trkpt>
      <trkpt lat="43.13729" lon="2.15895">
        <ele>230.081558</ele>
        <time>2015-07-18T10:45:35Z</time>
      </trkpt>
      <trkpt lat="43.13734" lon="2.1586">
        <ele>226.661423</ele>
        <time>2015-07-18T10:45:42Z</time>
      </trkpt>
      <trkpt lat="43.13751" lon="2.15835">
        <ele>225.613586</ele>
        <time>2015-07-18T10:45:47Z</time>
      </trkpt>
      <trkpt lat="43.13741" lon="2.15813">
        <ele>221.582718</ele>
        <time>2015-07-18T10:45:50Z</time>
      </trkpt>
      <trkpt lat="43.13742" lon="2.15792">
        <ele>220.33345</ele>
        <time>2015-07-18T10:45:54Z</time>
      </trkpt>
      <trkpt lat="43.13748" lon="2.15786">
        <ele>220.34021</ele>
        <time>2015-07-18T10:45:56Z</time>
      </trkpt>
      <trkpt lat="43.13766" lon="2.15749">
        <ele>219.138229</ele>
        <time>2015-07-18T10:46:04Z</time>
      </trkpt>
      <trkpt lat="43.13796" lon="2.15744">
        <ele>219.658981</ele>
        <time>2015-07-18T10:46:12Z</time>
      </trkpt>
      <trkpt lat="43.13802" lon="2.15745">
        <ele>219.774994</ele>
        <time>2015-07-18T10:46:14Z</time>
      </trkpt>
      <trkpt lat="43.13813" lon="2.15741">
        <ele>220.07103</ele>
        <time>2015-07-18T10:46:18Z</time>
      </trkpt>
      <trkpt lat="43.13952" lon="2.15284">
        <ele>247.608124</ele>
        <time>2015-07-18T10:49:13Z</time>
      </trkpt>
      <trkpt lat="43.14019" lon="2.15183">
        <ele>252.10437</ele>
        <time>2015-07-18T10:49:47Z</time>
      </trkpt>
      <trkpt lat="43.14154" lon="2.15129">
        <ele>254.194839</ele>
        <time>2015-07-18T10:50:22Z</time>
      </trkpt>
      <trkpt lat="43.14171" lon="2.1513">
        <ele>254.940338</ele>
        <time>2015-07-18T10:50:26Z</time>
      </trkpt>
      <trkpt lat="43.14257" lon="2.15176">
        <ele>259.463959</ele>
        <time>2015-07-18T10:50:49Z</time>
      </trkpt>
      <trkpt lat="43.14385" lon="2.15159">
        <ele>268.569641</ele>
        <time>2015-07-18T10:51:23Z</time>
      </trkpt>
      <trkpt lat="43.14387" lon="2.15156">
        <ele>268.675201</ele>
        <time>2015-07-18T10:51:24Z</time>
      </trkpt>
      <trkpt lat="43.14425" lon="2.14962">
        <ele>271.809814</ele>
        <time>2015-07-18T10:51:58Z</time>
      </trkpt>
      <trkpt lat="43.14436" lon="2.14712">
        <ele>270.312347</ele>
        <time>2015-07-18T10:52:28Z</time>
      </trkpt>
      <trkpt lat="43.14419" lon="2.14692">
        <ele>265.708282</ele>
        <time>2015-07-18T10:52:32Z</time>
      </trkpt>
      <trkpt lat="43.14344" lon="2.14695">
        <ele>248.267502</ele>
        <time>2015-07-18T10:52:42Z</time>
      </trkpt>
      <trkpt lat="43.14342" lon="2.1469">
        <ele>247.936859</ele>
        <time>2015-07-18T10:52:45Z</time>
      </trkpt>
      <trkpt lat="43.14345" lon="2.14662">
        <ele>248.714264</ele>
        <time>2015-07-18T10:52:53Z</time>
      </trkpt>
      <trkpt lat="43.14331" lon="2.14596">
        <ele>246.335403</ele>
        <time>2015-07-18T10:53:06Z</time>
      </trkpt>
      <trkpt lat="43.14271" lon="2.14496">
        <ele>235.297195</ele>
        <time>2015-07-18T10:53:17Z</time>
      </trkpt>
      <trkpt lat="43.14264" lon="2.14488">
        <ele>234.483109</ele>
        <time>2015-07-18T10:53:18Z</time>
      </trkpt>
      <trkpt lat="43.14257" lon="2.14484">
        <ele>233.775909</ele>
        <time>2015-07-18T10:53:19Z</time>
      </trkpt>
      <trkpt lat="43.1425" lon="2.14481">
        <ele>233.199829</ele>
        <time>2015-07-18T10:53:20Z</time>
      </trkpt>
      <trkpt lat="43.14237" lon="2.1448">
        <ele>232.263901</ele>
        <time>2015-07-18T10:53:22Z</time>
      </trkpt>
      <trkpt lat="43.14234" lon="2.14478">
        <ele>232.069443</ele>
        <time>2015-07-18T10:53:23Z</time>
      </trkpt>
      <trkpt lat="43.14234" lon="2.14476">
        <ele>232.052429</ele>
        <time>2015-07-18T10:53:24Z</time>
      </trkpt>
      <trkpt lat="43.14235" lon="2.14472">
        <ele>232.160919</ele>
        <time>2015-07-18T10:53:25Z</time>
      </trkpt>
      <trkpt lat="43.14237" lon="2.14469">
        <ele>232.347488</ele>
        <time>2015-07-18T10:53:26Z</time>
      </trkpt>
      <trkpt lat="43.14284" lon="2.1444">
        <ele>236.364517</ele>
        <time>2015-07-18T10:53:40Z</time>
      </trkpt>
      <trkpt lat="43.14365" lon="2.14345">
        <ele>239.059814</ele>
        <time>2015-07-18T10:54:08Z</time>
      </trkpt>
      <trkpt lat="43.14404" lon="2.14326">
        <ele>240.134933</ele>
        <time>2015-07-18T10:54:20Z</time>
      </trkpt>
      <trkpt lat="43.14455" lon="2.14162">
        <ele>242.193558</ele>
        <time>2015-07-18T10:54:56Z</time>
      </trkpt>
      <trkpt lat="43.1452" lon="2.1407">
        <ele>245.809067</ele>
        <time>2015-07-18T10:55:20Z</time>
      </trkpt>
      <trkpt lat="43.14565" lon="2.13879">
        <ele>243.730286</ele>
        <time>2015-07-18T10:55:48Z</time>
      </trkpt>
      <trkpt lat="43.14562" lon="2.13843">
        <ele>241.304153</ele>
        <time>2015-07-18T10:55:52Z</time>
      </trkpt>
      <trkpt lat="43.14566" lon="2.13836">
        <ele>241.364471</ele>
        <time>2015-07-18T10:55:53Z</time>
      </trkpt>
      <trkpt lat="43.14598" lon="2.13805">
        <ele>244.126251</ele>
        <time>2015-07-18T10:56:01Z</time>
      </trkpt>
      <trkpt lat="43.14602" lon="2.13803">
        <ele>244.547501</ele>
        <time>2015-07-18T10:56:02Z</time>
      </trkpt>
      <trkpt lat="43.14606" lon="2.13804">
        <ele>244.997498</ele>
        <time>2015-07-18T10:56:03Z</time>
      </trkpt>
      <trkpt lat="43.14638" lon="2.13835">
        <ele>249.541245</ele>
        <time>2015-07-18T10:56:18Z</time>
      </trkpt>
      <trkpt lat="43.14678" lon="2.13855">
        <ele>254.671677</ele>
        <time>2015-07-18T10:56:38Z</time>
      </trkpt>
      <trkpt lat="43.14682" lon="2.13855">
        <ele>254.991791</ele>
        <time>2015-07-18T10:56:40Z</time>
      </trkpt>
      <trkpt lat="43.14686" lon="2.13854">
        <ele>255.339859</ele>
        <time>2015-07-18T10:56:43Z</time>
      </trkpt>
      <trkpt lat="43.1469" lon="2.13858">
        <ele>255.769882</ele>
        <time>2015-07-18T10:56:46Z</time>
      </trkpt>
      <trkpt lat="43.14707" lon="2.1386">
        <ele>257.177155</ele>
        <time>2015-07-18T10:56:56Z</time>
      </trkpt>
      <trkpt lat="43.14711" lon="2.13849">
        <ele>257.115875</ele>
        <time>2015-07-18T10:57:00Z</time>
      </trkpt>
      <trkpt lat="43.14713" lon="2.13846">
        <ele>257.066162</ele>
        <time>2015-07-18T10:57:01Z</time>
      </trkpt>
      <trkpt lat="43.14716" lon="2.13846">
        <ele>257.045868</ele>
        <time>2015-07-18T10:57:02Z</time>
      </trkpt>
      <trkpt lat="43.14747" lon="2.13857">
        <ele>256.814941</ele>
        <time>2015-07-18T10:57:13Z</time>
      </trkpt>
      <trkpt lat="43.14802" lon="2.13846">
        <ele>250.747498</ele>
        <time>2015-07-18T10:57:24Z</time>
      </trkpt>
      <trkpt lat="43.14827" lon="2.13835">
        <ele>248.823441</ele>
        <time>2015-07-18T10:57:29Z</time>
      </trkpt>
      <trkpt lat="43.14878" lon="2.13794">
        <ele>245.373749</ele>
        <time>2015-07-18T10:57:46Z</time>
      </trkpt>
      <trkpt lat="43.14882" lon="2.13786">
        <ele>244.846695</ele>
        <time>2015-07-18T10:57:58Z</time>
      </trkpt>
      <trkpt lat="43.14881" lon="2.13785">
        <ele>245.008255</ele>
        <time>2015-07-18T10:58:25Z</time>
      </trkpt>
      <trkpt lat="43.14883" lon="2.13788">
        <ele>244.688507</ele>
        <time>2015-07-18T10:59:12Z</time>
      </trkpt>
      <trkpt lat="43.15052" lon="2.13865">
        <ele>254.75</ele>
        <time>2015-07-18T11:00:26Z</time>
      </trkpt>
      <trkpt lat="43.15062" lon="2.13894">
        <ele>256.367493</ele>
        <time>2015-07-18T11:00:37Z</time>
      </trkpt>
      <trkpt lat="43.15133" lon="2.14326">
        <ele>275.570007</ele>
        <time>2015-07-18T11:02:17Z</time>
      </trkpt>
      <trkpt lat="43.1512" lon="2.1447">
        <ele>279.105682</ele>
        <time>2015-07-18T11:02:48Z</time>
      </trkpt>
      <trkpt lat="43.15136" lon="2.14513">
        <ele>279.01593</ele>
        <time>2015-07-18T11:02:59Z</time>
      </trkpt>
      <trkpt lat="43.15171" lon="2.15034">
        <ele>294.867493</ele>
        <time>2015-07-18T11:05:09Z</time>
      </trkpt>
      <trkpt lat="43.15252" lon="2.153">
        <ele>303.950012</ele>
        <time>2015-07-18T11:06:20Z</time>
      </trkpt>
      <trkpt lat="43.15287" lon="2.15357">
        <ele>301.148743</ele>
        <time>2015-07-18T11:06:33Z</time>
      </trkpt>
      <trkpt lat="43.15314" lon="2.15475">
        <ele>304.55365</ele>
        <time>2015-07-18T11:07:05Z</time>
      </trkpt>
      <trkpt lat="43.15283" lon="2.15839">
        <ele>333.494629</ele>
        <time>2015-07-18T11:08:56Z</time>
      </trkpt>
      <trkpt lat="43.15272" lon="2.15876">
        <ele>335.983276</ele>
        <time>2015-07-18T11:09:09Z</time>
      </trkpt>
      <trkpt lat="43.15264" lon="2.1597">
        <ele>341.081146</ele>
        <time>2015-07-18T11:09:38Z</time>
      </trkpt>
      <trkpt lat="43.15285" lon="2.16109">
        <ele>345.745911</ele>
        <time>2015-07-18T11:10:20Z</time>
      </trkpt>
      <trkpt lat="43.15354" lon="2.16206">
        <ele>338.503113</ele>
        <time>2015-07-18T11:10:43Z</time>
      </trkpt>
      <trkpt lat="43.15393" lon="2.16302">
        <ele>333.406006</ele>
        <time>2015-07-18T11:10:56Z</time>
      </trkpt>
      <trkpt lat="43.1548" lon="2.16604">
        <ele>339.933105</ele>
        <time>2015-07-18T11:11:41Z</time>
      </trkpt>
      <trkpt lat="43.1548" lon="2.16629">
        <ele>339.089325</ele>
        <time>2015-07-18T11:11:45Z</time>
      </trkpt>
      <trkpt lat="43.15477" lon="2.16641">
        <ele>338.623474</ele>
        <time>2015-07-18T11:11:47Z</time>
      </trkpt>
      <trkpt lat="43.1534" lon="2.16842">
        <ele>334.905212</ele>
        <time>2015-07-18T11:12:16Z</time>
      </trkpt>
      <trkpt lat="43.15279" lon="2.17052">
        <ele>324.585938</ele>
        <time>2015-07-18T11:12:38Z</time>
      </trkpt>
      <trkpt lat="43.15269" lon="2.17068">
        <ele>324.289185</ele>
        <time>2015-07-18T11:12:40Z</time>
      </trkpt>
      <trkpt lat="43.15256" lon="2.17079">
        <ele>324.883057</ele>
        <time>2015-07-18T11:12:42Z</time>
      </trkpt>
      <trkpt lat="43.15248" lon="2.17094">
        <ele>325.105133</ele>
        <time>2015-07-18T11:12:44Z</time>
      </trkpt>
      <trkpt lat="43.15241" lon="2.17148">
        <ele>325.526978</ele>
        <time>2015-07-18T11:12:50Z</time>
      </trkpt>
      <trkpt lat="43.15157" lon="2.17364">
        <ele>325.07019</ele>
        <time>2015-07-18T11:13:32Z</time>
      </trkpt>
      <trkpt lat="43.15097" lon="2.17448">
        <ele>315.138611</ele>
        <time>2015-07-18T11:13:44Z</time>
      </trkpt>
      <trkpt lat="43.15095" lon="2.17455">
        <ele>314.806091</ele>
        <time>2015-07-18T11:13:45Z</time>
      </trkpt>
      <trkpt lat="43.15095" lon="2.1747">
        <ele>313.413025</ele>
        <time>2015-07-18T11:13:48Z</time>
      </trkpt>
      <trkpt lat="43.1509" lon="2.17472">
        <ele>311.917084</ele>
        <time>2015-07-18T11:14:04Z</time>
      </trkpt>
      <trkpt lat="43.15117" lon="2.17574">
        <ele>301.39151</ele>
        <time>2015-07-18T11:14:26Z</time>
      </trkpt>
      <trkpt lat="43.15116" lon="2.17579">
        <ele>300.608185</ele>
        <time>2015-07-18T11:14:27Z</time>
      </trkpt>
      <trkpt lat="43.15114" lon="2.17582">
        <ele>300.045807</ele>
        <time>2015-07-18T11:14:28Z</time>
      </trkpt>
      <trkpt lat="43.15057" lon="2.1761">
        <ele>300.739868</ele>
        <time>2015-07-18T11:14:49Z</time>
      </trkpt>
      <trkpt lat="43.15048" lon="2.17648">
        <ele>302.792511</ele>
        <time>2015-07-18T11:14:59Z</time>
      </trkpt>
      <trkpt lat="43.15045" lon="2.17653">
        <ele>303.244995</ele>
        <time>2015-07-18T11:15:00Z</time>
      </trkpt>
      <trkpt lat="43.15041" lon="2.17657">
        <ele>303.544983</ele>
        <time>2015-07-18T11:15:01Z</time>
      </trkpt>
      <trkpt lat="43.1503" lon="2.17663">
        <ele>303.867493</ele>
        <time>2015-07-18T11:15:03Z</time>
      </trkpt>
      <trkpt lat="43.14974" lon="2.17672">
        <ele>305.21225</ele>
        <time>2015-07-18T11:15:16Z</time>
      </trkpt>
      <trkpt lat="43.14923" lon="2.17697">
        <ele>306.765411</ele>
        <time>2015-07-18T11:15:30Z</time>
      </trkpt>
      <trkpt lat="43.1472" lon="2.17942">
        <ele>322.021027</ele>
        <time>2015-07-18T11:16:58Z</time>
      </trkpt>
      <trkpt lat="43.14719" lon="2.17947">
        <ele>322.056396</ele>
        <time>2015-07-18T11:17:00Z</time>
      </trkpt>
      <trkpt lat="43.14718" lon="2.1795">
        <ele>322.116089</ele>
        <time>2015-07-18T11:17:01Z</time>
      </trkpt>
      <trkpt lat="43.1479" lon="2.18109">
        <ele>336.67041</ele>
        <time>2015-07-18T11:17:49Z</time>
      </trkpt>
      <trkpt lat="43.14786" lon="2.18166">
        <ele>336.584991</ele>
        <time>2015-07-18T11:18:06Z</time>
      </trkpt>
      <trkpt lat="43.14798" lon="2.18193">
        <ele>339.285919</ele>
        <time>2015-07-18T11:18:17Z</time>
      </trkpt>
      <trkpt lat="43.14828" lon="2.18191">
        <ele>343.308228</ele>
        <time>2015-07-18T11:18:31Z</time>
      </trkpt>
      <trkpt lat="43.14859" lon="2.18198">
        <ele>346.714996</ele>
        <time>2015-07-18T11:18:43Z</time>
      </trkpt>
      <trkpt lat="43.1492" lon="2.18254">
        <ele>353.907166</ele>
        <time>2015-07-18T11:19:12Z</time>
      </trkpt>
      <trkpt lat="43.15037" lon="2.18615">
        <ele>366.716492</ele>
        <time>2015-07-18T11:20:55Z</time>
      </trkpt>
      <trkpt lat="43.1504" lon="2.18617">
        <ele>367.000092</ele>
        <time>2015-07-18T11:20:56Z</time>
      </trkpt>
      <trkpt lat="43.15042" lon="2.1862">
        <ele>366.982361</ele>
        <time>2015-07-18T11:20:57Z</time>
      </trkpt>
      <trkpt lat="43.15042" lon="2.18623">
        <ele>366.630829</ele>
        <time>2015-07-18T11:20:58Z</time>
      </trkpt>
      <trkpt lat="43.15034" lon="2.1862">
        <ele>365.333771</ele>
        <time>2015-07-18T11:21:01Z</time>
      </trkpt>
      <trkpt lat="43.15019" lon="2.18607">
        <ele>364.92337</ele>
        <time>2015-07-18T11:21:05Z</time>
      </trkpt>
      <trkpt lat="43.14979" lon="2.18594">
        <ele>361.104004</ele>
        <time>2015-07-18T11:21:11Z</time>
      </trkpt>
      <trkpt lat="43.14971" lon="2.18595">
        <ele>360.554688</ele>
        <time>2015-07-18T11:21:12Z</time>
      </trkpt>
      <trkpt lat="43.14957" lon="2.18601">
        <ele>359.704315</ele>
        <time>2015-07-18T11:21:14Z</time>
      </trkpt>
      <trkpt lat="43.14946" lon="2.18611">
        <ele>359.860321</ele>
        <time>2015-07-18T11:21:16Z</time>
      </trkpt>
      <trkpt lat="43.14944" lon="2.18618">
        <ele>360.288177</ele>
        <time>2015-07-18T11:21:17Z</time>
      </trkpt>
      <trkpt lat="43.14943" lon="2.18624">
        <ele>360.742493</ele>
        <time>2015-07-18T11:21:18Z</time>
      </trkpt>
      <trkpt lat="43.14947" lon="2.18635">
        <ele>360.078552</ele>
        <time>2015-07-18T11:21:20Z</time>
      </trkpt>
      <trkpt lat="43.14949" lon="2.18686">
        <ele>356.174835</ele>
        <time>2015-07-18T11:21:28Z</time>
      </trkpt>
      <trkpt lat="43.14943" lon="2.18717">
        <ele>352.370392</ele>
        <time>2015-07-18T11:21:33Z</time>
      </trkpt>
      <trkpt lat="43.14936" lon="2.1873">
        <ele>350.681244</ele>
        <time>2015-07-18T11:21:35Z</time>
      </trkpt>
      <trkpt lat="43.14932" lon="2.18735">
        <ele>349.84375</ele>
        <time>2015-07-18T11:21:36Z</time>
      </trkpt>
      <trkpt lat="43.14926" lon="2.18738">
        <ele>349.191254</ele>
        <time>2015-07-18T11:21:37Z</time>
      </trkpt>
      <trkpt lat="43.14919" lon="2.18739">
        <ele>348.964996</ele>
        <time>2015-07-18T11:21:38Z</time>
      </trkpt>
      <trkpt lat="43.14906" lon="2.18736">
        <ele>349.17749</ele>
        <time>2015-07-18T11:21:40Z</time>
      </trkpt>
      <trkpt lat="43.14861" lon="2.18707">
        <ele>347.921417</ele>
        <time>2015-07-18T11:21:46Z</time>
      </trkpt>
      <trkpt lat="43.14836" lon="2.18706">
        <ele>345.283173</ele>
        <time>2015-07-18T11:21:50Z</time>
      </trkpt>
      <trkpt lat="43.14826" lon="2.18709">
        <ele>344.232605</ele>
        <time>2015-07-18T11:21:52Z</time>
      </trkpt>
      <trkpt lat="43.14822" lon="2.18713">
        <ele>343.782074</ele>
        <time>2015-07-18T11:21:53Z</time>
      </trkpt>
      <trkpt lat="43.1482" lon="2.18718">
        <ele>343.445526</ele>
        <time>2015-07-18T11:21:54Z</time>
      </trkpt>
      <trkpt lat="43.14806" lon="2.18768">
        <ele>339.596252</ele>
        <time>2015-07-18T11:22:03Z</time>
      </trkpt>
      <trkpt lat="43.14715" lon="2.18888">
        <ele>331.794281</ele>
        <time>2015-07-18T11:22:42Z</time>
      </trkpt>
      <trkpt lat="43.14398" lon="2.19033">
        <ele>306.079193</ele>
        <time>2015-07-18T11:23:34Z</time>
      </trkpt>
      <trkpt lat="43.14335" lon="2.19099">
        <ele>301.167328</ele>
        <time>2015-07-18T11:23:46Z</time>
      </trkpt>
      <trkpt lat="43.14332" lon="2.19104">
        <ele>301.141998</ele>
        <time>2015-07-18T11:23:56Z</time>
      </trkpt>
      <trkpt lat="43.14334" lon="2.19112">
        <ele>301.363892</ele>
        <time>2015-07-18T11:23:59Z</time>
      </trkpt>
      <trkpt lat="43.14338" lon="2.19157">
        <ele>299.602936</ele>
        <time>2015-07-18T11:24:09Z</time>
      </trkpt>
      <trkpt lat="43.14326" lon="2.19245">
        <ele>293.964813</ele>
        <time>2015-07-18T11:24:22Z</time>
      </trkpt>
      <trkpt lat="43.14333" lon="2.19278">
        <ele>289.623505</ele>
        <time>2015-07-18T11:24:27Z</time>
      </trkpt>
      <trkpt lat="43.14367" lon="2.19313">
        <ele>282.533386</ele>
        <time>2015-07-18T11:24:35Z</time>
      </trkpt>
      <trkpt lat="43.14371" lon="2.19316">
        <ele>282.006744</ele>
        <time>2015-07-18T11:24:36Z</time>
      </trkpt>
      <trkpt lat="43.14376" lon="2.19316">
        <ele>281.733368</ele>
        <time>2015-07-18T11:24:37Z</time>
      </trkpt>
      <trkpt lat="43.14382" lon="2.19315">
        <ele>281.753174</ele>
        <time>2015-07-18T11:24:38Z</time>
      </trkpt>
      <trkpt lat="43.14407" lon="2.19303">
        <ele>282.768127</ele>
        <time>2015-07-18T11:24:43Z</time>
      </trkpt>
      <trkpt lat="43.14415" lon="2.19301">
        <ele>282.575531</ele>
        <time>2015-07-18T11:24:45Z</time>
      </trkpt>
      <trkpt lat="43.14451" lon="2.19308">
        <ele>280.694824</ele>
        <time>2015-07-18T11:24:52Z</time>
      </trkpt>
      <trkpt lat="43.14458" lon="2.19314">
        <ele>280.626068</ele>
        <time>2015-07-18T11:24:54Z</time>
      </trkpt>
      <trkpt lat="43.14459" lon="2.19318">
        <ele>280.5979</ele>
        <time>2015-07-18T11:24:55Z</time>
      </trkpt>
      <trkpt lat="43.14459" lon="2.19328">
        <ele>280.307556</ele>
        <time>2015-07-18T11:24:59Z</time>
      </trkpt>
      <trkpt lat="43.14453" lon="2.19347">
        <ele>278.833588</ele>
        <time>2015-07-18T11:25:08Z</time>
      </trkpt>
      <trkpt lat="43.14464" lon="2.1951">
        <ele>295.422485</ele>
        <time>2015-07-18T11:26:12Z</time>
      </trkpt>
      <trkpt lat="43.14537" lon="2.19755">
        <ele>310.976257</ele>
        <time>2015-07-18T11:27:41Z</time>
      </trkpt>
      <trkpt lat="43.14528" lon="2.19881">
        <ele>316.365234</ele>
        <time>2015-07-18T11:28:25Z</time>
      </trkpt>
      <trkpt lat="43.14379" lon="2.2036">
        <ele>284.937012</ele>
        <time>2015-07-18T11:29:17Z</time>
      </trkpt>
      <trkpt lat="43.14382" lon="2.20409">
        <ele>287.13205</ele>
        <time>2015-07-18T11:29:23Z</time>
      </trkpt>
      <trkpt lat="43.1438" lon="2.20418">
        <ele>288.098633</ele>
        <time>2015-07-18T11:29:24Z</time>
      </trkpt>
      <trkpt lat="43.14376" lon="2.20424">
        <ele>288.394531</ele>
        <time>2015-07-18T11:29:25Z</time>
      </trkpt>
      <trkpt lat="43.1436" lon="2.20433">
        <ele>287.701385</ele>
        <time>2015-07-18T11:29:28Z</time>
      </trkpt>
      <trkpt lat="43.1435" lon="2.20445">
        <ele>288.297241</ele>
        <time>2015-07-18T11:29:31Z</time>
      </trkpt>
      <trkpt lat="43.14327" lon="2.2049">
        <ele>292.105255</ele>
        <time>2015-07-18T11:29:48Z</time>
      </trkpt>
      <trkpt lat="43.14257" lon="2.20717">
        <ele>291.201355</ele>
        <time>2015-07-18T11:30:32Z</time>
      </trkpt>
      <trkpt lat="43.14258" lon="2.20719">
        <ele>291.539673</ele>
        <time>2015-07-18T11:30:33Z</time>
      </trkpt>
      <trkpt lat="43.14489" lon="2.208">
        <ele>330.087311</ele>
        <time>2015-07-18T11:32:59Z</time>
      </trkpt>
      <trkpt lat="43.14495" lon="2.20798">
        <ele>330.293823</ele>
        <time>2015-07-18T11:33:03Z</time>
      </trkpt>
      <trkpt lat="43.14505" lon="2.20799">
        <ele>330.449493</ele>
        <time>2015-07-18T11:33:10Z</time>
      </trkpt>
      <trkpt lat="43.14553" lon="2.20816">
        <ele>333.862488</ele>
        <time>2015-07-18T11:33:42Z</time>
      </trkpt>
      <trkpt lat="43.1456" lon="2.20822">
        <ele>334.461884</ele>
        <time>2015-07-18T11:33:46Z</time>
      </trkpt>
      <trkpt lat="43.14656" lon="2.20999">
        <ele>339.47052</ele>
        <time>2015-07-18T11:34:45Z</time>
      </trkpt>
      <trkpt lat="43.14662" lon="2.21004">
        <ele>339.388519</ele>
        <time>2015-07-18T11:34:47Z</time>
      </trkpt>
      <trkpt lat="43.14666" lon="2.21004">
        <ele>339.346405</ele>
        <time>2015-07-18T11:34:48Z</time>
      </trkpt>
      <trkpt lat="43.14705" lon="2.20974">
        <ele>341.2724</ele>
        <time>2015-07-18T11:35:03Z</time>
      </trkpt>
      <trkpt lat="43.14758" lon="2.2096">
        <ele>342.09967</ele>
        <time>2015-07-18T11:35:21Z</time>
      </trkpt>
      <trkpt lat="43.14794" lon="2.20974">
        <ele>341.54126</ele>
        <time>2015-07-18T11:35:34Z</time>
      </trkpt>
      <trkpt lat="43.14808" lon="2.20984">
        <ele>340.442993</ele>
        <time>2015-07-18T11:35:39Z</time>
      </trkpt>
      <trkpt lat="43.14814" lon="2.20985">
        <ele>339.426941</ele>
        <time>2015-07-18T11:35:40Z</time>
      </trkpt>
      <trkpt lat="43.14846" lon="2.20981">
        <ele>334.142914</ele>
        <time>2015-07-18T11:35:45Z</time>
      </trkpt>
      <trkpt lat="43.14857" lon="2.20973">
        <ele>334.096466</ele>
        <time>2015-07-18T11:35:47Z</time>
      </trkpt>
      <trkpt lat="43.14893" lon="2.20928">
        <ele>334.810059</ele>
        <time>2015-07-18T11:35:54Z</time>
      </trkpt>
      <trkpt lat="43.14899" lon="2.20925">
        <ele>334.350006</ele>
        <time>2015-07-18T11:35:55Z</time>
      </trkpt>
      <trkpt lat="43.14904" lon="2.20923">
        <ele>334.042999</ele>
        <time>2015-07-18T11:35:56Z</time>
      </trkpt>
      <trkpt lat="43.14972" lon="2.20923">
        <ele>334.032654</ele>
        <time>2015-07-18T11:36:26Z</time>
      </trkpt>
      <trkpt lat="43.14996" lon="2.20909">
        <ele>339.904083</ele>
        <time>2015-07-18T11:36:38Z</time>
      </trkpt>
      <trkpt lat="43.15009" lon="2.20887">
        <ele>344.448792</ele>
        <time>2015-07-18T11:36:49Z</time>
      </trkpt>
      <trkpt lat="43.15012" lon="2.20881">
        <ele>344.988922</ele>
        <time>2015-07-18T11:36:52Z</time>
      </trkpt>
      <trkpt lat="43.1503" lon="2.20862">
        <ele>349.402527</ele>
        <time>2015-07-18T11:37:08Z</time>
      </trkpt>
      <trkpt lat="43.15113" lon="2.20806">
        <ele>366.832977</ele>
        <time>2015-07-18T11:38:12Z</time>
      </trkpt>
      <trkpt lat="43.1513" lon="2.208">
        <ele>369.830017</ele>
        <time>2015-07-18T11:38:22Z</time>
      </trkpt>
      <trkpt lat="43.15176" lon="2.20802">
        <ele>375.713287</ele>
        <time>2015-07-18T11:38:51Z</time>
      </trkpt>
      <trkpt lat="43.15178" lon="2.208">
        <ele>376.230011</ele>
        <time>2015-07-18T11:38:53Z</time>
      </trkpt>
      <trkpt lat="43.152" lon="2.20791">
        <ele>379.862061</ele>
        <time>2015-07-18T11:39:08Z</time>
      </trkpt>
      <trkpt lat="43.15207" lon="2.20791">
        <ele>380.805695</ele>
        <time>2015-07-18T11:39:39Z</time>
      </trkpt>
      <trkpt lat="43.15207" lon="2.20789">
        <ele>380.96405</ele>
        <time>2015-07-18T11:40:00Z</time>
      </trkpt>
      <trkpt lat="43.15244" lon="2.20786">
        <ele>384.966644</ele>
        <time>2015-07-18T11:40:26Z</time>
      </trkpt>
      <trkpt lat="43.15323" lon="2.20741">
        <ele>392.015778</ele>
        <time>2015-07-18T11:41:16Z</time>
      </trkpt>
      <trkpt lat="43.1533" lon="2.2074">
        <ele>392.301727</ele>
        <time>2015-07-18T11:41:19Z</time>
      </trkpt>
      <trkpt lat="43.15367" lon="2.20722">
        <ele>394.585602</ele>
        <time>2015-07-18T11:41:34Z</time>
      </trkpt>
      <trkpt lat="43.15396" lon="2.20694">
        <ele>397.259583</ele>
        <time>2015-07-18T11:41:41Z</time>
      </trkpt>
      <trkpt lat="43.15402" lon="2.20692">
        <ele>397.523804</ele>
        <time>2015-07-18T11:41:42Z</time>
      </trkpt>
      <trkpt lat="43.15414" lon="2.20692">
        <ele>397.608368</ele>
        <time>2015-07-18T11:41:45Z</time>
      </trkpt>
      <trkpt lat="43.15449" lon="2.20701">
        <ele>398.097504</ele>
        <time>2015-07-18T11:41:58Z</time>
      </trkpt>
      <trkpt lat="43.1562" lon="2.20929">
        <ele>420.069305</ele>
        <time>2015-07-18T11:43:59Z</time>
      </trkpt>
      <trkpt lat="43.15639" lon="2.20939">
        <ele>421.938019</ele>
        <time>2015-07-18T11:44:12Z</time>
      </trkpt>
      <trkpt lat="43.15651" lon="2.20969">
        <ele>425.341949</ele>
        <time>2015-07-18T11:44:28Z</time>
      </trkpt>
      <trkpt lat="43.15669" lon="2.20984">
        <ele>429.38681</ele>
        <time>2015-07-18T11:44:41Z</time>
      </trkpt>
      <trkpt lat="43.15687" lon="2.20991">
        <ele>432.841125</ele>
        <time>2015-07-18T11:44:53Z</time>
      </trkpt>
      <trkpt lat="43.15699" lon="2.21007">
        <ele>436.75116</ele>
        <time>2015-07-18T11:45:05Z</time>
      </trkpt>
      <trkpt lat="43.15705" lon="2.21033">
        <ele>439.762299</ele>
        <time>2015-07-18T11:45:19Z</time>
      </trkpt>
      <trkpt lat="43.15706" lon="2.21034">
        <ele>440.013794</ele>
        <time>2015-07-18T11:45:20Z</time>
      </trkpt>
      <trkpt lat="43.15721" lon="2.2103">
        <ele>439.915009</ele>
        <time>2015-07-18T11:45:28Z</time>
      </trkpt>
      <trkpt lat="43.158" lon="2.21055">
        <ele>430.980743</ele>
        <time>2015-07-18T11:45:49Z</time>
      </trkpt>
      <trkpt lat="43.15804" lon="2.21055">
        <ele>430.28476</ele>
        <time>2015-07-18T11:45:50Z</time>
      </trkpt>
      <trkpt lat="43.15807" lon="2.21058">
        <ele>430.032715</ele>
        <time>2015-07-18T11:45:51Z</time>
      </trkpt>
      <trkpt lat="43.15808" lon="2.2106">
        <ele>430.066467</ele>
        <time>2015-07-18T11:45:52Z</time>
      </trkpt>
      <trkpt lat="43.15799" lon="2.21313">
        <ele>434.303619</ele>
        <time>2015-07-18T11:46:51Z</time>
      </trkpt>
      <trkpt lat="43.15798" lon="2.21316">
        <ele>434.459442</ele>
        <time>2015-07-18T11:46:52Z</time>
      </trkpt>
      <trkpt lat="43.15797" lon="2.2132">
        <ele>434.285309</ele>
        <time>2015-07-18T11:46:53Z</time>
      </trkpt>
      <trkpt lat="43.15787" lon="2.21335">
        <ele>433.452454</ele>
        <time>2015-07-18T11:46:59Z</time>
      </trkpt>
      <trkpt lat="43.15719" lon="2.21501">
        <ele>409.473755</ele>
        <time>2015-07-18T11:47:31Z</time>
      </trkpt>
      <trkpt lat="43.15732" lon="2.21711">
        <ele>383.594849</ele>
        <time>2015-07-18T11:48:05Z</time>
      </trkpt>
      <trkpt lat="43.15729" lon="2.21714">
        <ele>383.373199</ele>
        <time>2015-07-18T11:48:42Z</time>
      </trkpt>
      <trkpt lat="43.15731" lon="2.21718">
        <ele>383.354126</ele>
        <time>2015-07-18T11:48:44Z</time>
      </trkpt>
      <trkpt lat="43.15636" lon="2.22527">
        <ele>381.596375</ele>
        <time>2015-07-18T11:51:58Z</time>
      </trkpt>
      <trkpt lat="43.15617" lon="2.22545">
        <ele>382.708496</ele>
        <time>2015-07-18T11:52:00Z</time>
      </trkpt>
      <trkpt lat="43.15554" lon="2.22738">
        <ele>375.887512</ele>
        <time>2015-07-18T11:52:20Z</time>
      </trkpt>
      <trkpt lat="43.15554" lon="2.2277">
        <ele>374.877502</ele>
        <time>2015-07-18T11:52:23Z</time>
      </trkpt>
      <trkpt lat="43.1561" lon="2.23031">
        <ele>377.31601</ele>
        <time>2015-07-18T11:52:59Z</time>
      </trkpt>
      <trkpt lat="43.15605" lon="2.23107">
        <ele>374.760132</ele>
        <time>2015-07-18T11:53:18Z</time>
      </trkpt>
      <trkpt lat="43.15572" lon="2.23163">
        <ele>367.358337</ele>
        <time>2015-07-18T11:53:26Z</time>
      </trkpt>
      <trkpt lat="43.1552" lon="2.23371">
        <ele>363.075043</ele>
        <time>2015-07-18T11:53:54Z</time>
      </trkpt>
      <trkpt lat="43.15339" lon="2.23695">
        <ele>382.234009</ele>
        <time>2015-07-18T11:55:19Z</time>
      </trkpt>
      <trkpt lat="43.15336" lon="2.23723">
        <ele>382.369324</ele>
        <time>2015-07-18T11:55:23Z</time>
      </trkpt>
      <trkpt lat="43.15341" lon="2.2377">
        <ele>377.933441</ele>
        <time>2015-07-18T11:55:31Z</time>
      </trkpt>
      <trkpt lat="43.15333" lon="2.23826">
        <ele>374.14801</ele>
        <time>2015-07-18T11:55:37Z</time>
      </trkpt>
      <trkpt lat="43.15323" lon="2.23855">
        <ele>377.114868</ele>
        <time>2015-07-18T11:55:40Z</time>
      </trkpt>
      <trkpt lat="43.153" lon="2.23885">
        <ele>385.506592</ele>
        <time>2015-07-18T11:55:47Z</time>
      </trkpt>
      <trkpt lat="43.15309" lon="2.23894">
        <ele>383.672699</ele>
        <time>2015-07-18T11:55:50Z</time>
      </trkpt>
      <trkpt lat="43.15341" lon="2.2394">
        <ele>378.767487</ele>
        <time>2015-07-18T11:55:59Z</time>
      </trkpt>
      <trkpt lat="43.1535" lon="2.23991">
        <ele>377.378296</ele>
        <time>2015-07-18T11:56:09Z</time>
      </trkpt>
      <trkpt lat="43.15392" lon="2.24739">
        <ele>337.718872</ele>
        <time>2015-07-18T11:57:46Z</time>
      </trkpt>
      <trkpt lat="43.15438" lon="2.24894">
        <ele>334.512817</ele>
        <time>2015-07-18T11:58:12Z</time>
      </trkpt>
      <trkpt lat="43.15388" lon="2.25073">
        <ele>337.886353</ele>
        <time>2015-07-18T11:58:48Z</time>
      </trkpt>
      <trkpt lat="43.15385" lon="2.25134">
        <ele>336.998627</ele>
        <time>2015-07-18T11:58:56Z</time>
      </trkpt>
      <trkpt lat="43.15417" lon="2.25329">
        <ele>326.800049</ele>
        <time>2015-07-18T11:59:20Z</time>
      </trkpt>
      <trkpt lat="43.15474" lon="2.25423">
        <ele>329.734985</ele>
        <time>2015-07-18T11:59:38Z</time>
      </trkpt>
      <trkpt lat="43.15479" lon="2.25427">
        <ele>329.834991</ele>
        <time>2015-07-18T11:59:39Z</time>
      </trkpt>
      <trkpt lat="43.15492" lon="2.25435">
        <ele>329.452759</ele>
        <time>2015-07-18T11:59:41Z</time>
      </trkpt>
      <trkpt lat="43.15622" lon="2.25448">
        <ele>315.660645</ele>
        <time>2015-07-18T11:59:58Z</time>
      </trkpt>
      <trkpt lat="43.15727" lon="2.25417">
        <ele>302.669495</ele>
        <time>2015-07-18T12:00:13Z</time>
      </trkpt>
      <trkpt lat="43.15754" lon="2.25418">
        <ele>300.636383</ele>
        <time>2015-07-18T12:00:16Z</time>
      </trkpt>
      <trkpt lat="43.15775" lon="2.25429">
        <ele>300.80249</ele>
        <time>2015-07-18T12:00:19Z</time>
      </trkpt>
      <trkpt lat="43.15799" lon="2.25453">
        <ele>301.203949</ele>
        <time>2015-07-18T12:00:23Z</time>
      </trkpt>
      <trkpt lat="43.15807" lon="2.25467">
        <ele>301.402222</ele>
        <time>2015-07-18T12:00:25Z</time>
      </trkpt>
      <trkpt lat="43.15828" lon="2.2557">
        <ele>303.033661</ele>
        <time>2015-07-18T12:00:42Z</time>
      </trkpt>
      <trkpt lat="43.15933" lon="2.25693">
        <ele>310.243896</ele>
        <time>2015-07-18T12:01:19Z</time>
      </trkpt>
      <trkpt lat="43.15995" lon="2.25891">
        <ele>310.151093</ele>
        <time>2015-07-18T12:01:56Z</time>
      </trkpt>
      <trkpt lat="43.15996" lon="2.25914">
        <ele>307.971863</ele>
        <time>2015-07-18T12:01:59Z</time>
      </trkpt>
      <trkpt lat="43.15978" lon="2.25958">
        <ele>302.292816</ele>
        <time>2015-07-18T12:02:05Z</time>
      </trkpt>
      <trkpt lat="43.15979" lon="2.25967">
        <ele>301.855713</ele>
        <time>2015-07-18T12:02:06Z</time>
      </trkpt>
      <trkpt lat="43.15982" lon="2.25974">
        <ele>301.843109</ele>
        <time>2015-07-18T12:02:07Z</time>
      </trkpt>
      <trkpt lat="43.15987" lon="2.25979">
        <ele>301.8797</ele>
        <time>2015-07-18T12:02:08Z</time>
      </trkpt>
      <trkpt lat="43.16015" lon="2.25989">
        <ele>303.031677</ele>
        <time>2015-07-18T12:02:12Z</time>
      </trkpt>
      <trkpt lat="43.16021" lon="2.25996">
        <ele>302.812805</ele>
        <time>2015-07-18T12:02:13Z</time>
      </trkpt>
      <trkpt lat="43.1603" lon="2.26015">
        <ele>301.926056</ele>
        <time>2015-07-18T12:02:15Z</time>
      </trkpt>
      <trkpt lat="43.16035" lon="2.2605">
        <ele>299.5914</ele>
        <time>2015-07-18T12:02:18Z</time>
      </trkpt>
      <trkpt lat="43.15954" lon="2.26475">
        <ele>279.479553</ele>
        <time>2015-07-18T12:03:06Z</time>
      </trkpt>
      <trkpt lat="43.15908" lon="2.26599">
        <ele>272.088318</ele>
        <time>2015-07-18T12:03:25Z</time>
      </trkpt>
      <trkpt lat="43.15904" lon="2.26605">
        <ele>272.064117</ele>
        <time>2015-07-18T12:03:26Z</time>
      </trkpt>
      <trkpt lat="43.15899" lon="2.26608">
        <ele>272.350464</ele>
        <time>2015-07-18T12:03:27Z</time>
      </trkpt>
      <trkpt lat="43.15894" lon="2.26609">
        <ele>272.924164</ele>
        <time>2015-07-18T12:03:28Z</time>
      </trkpt>
      <trkpt lat="43.15881" lon="2.26606">
        <ele>273.362488</ele>
        <time>2015-07-18T12:03:31Z</time>
      </trkpt>
      <trkpt lat="43.15871" lon="2.26606">
        <ele>273.157227</ele>
        <time>2015-07-18T12:03:33Z</time>
      </trkpt>
      <trkpt lat="43.15866" lon="2.26609">
        <ele>272.905914</ele>
        <time>2015-07-18T12:03:34Z</time>
      </trkpt>
      <trkpt lat="43.15825" lon="2.26673">
        <ele>268.581635</ele>
        <time>2015-07-18T12:03:46Z</time>
      </trkpt>
      <trkpt lat="43.15805" lon="2.26749">
        <ele>263.878998</ele>
        <time>2015-07-18T12:04:00Z</time>
      </trkpt>
      <trkpt lat="43.15808" lon="2.26857">
        <ele>260.234619</ele>
        <time>2015-07-18T12:04:10Z</time>
      </trkpt>
      <trkpt lat="43.15755" lon="2.27006">
        <ele>260.416748</ele>
        <time>2015-07-18T12:04:28Z</time>
      </trkpt>
      <trkpt lat="43.15745" lon="2.27022">
        <ele>260.365997</ele>
        <time>2015-07-18T12:04:32Z</time>
      </trkpt>
      <trkpt lat="43.15747" lon="2.27022">
        <ele>260.476807</ele>
        <time>2015-07-18T12:04:36Z</time>
      </trkpt>
      <trkpt lat="43.1575" lon="2.27022">
        <ele>260.539734</ele>
        <time>2015-07-18T12:04:39Z</time>
      </trkpt>
      <trkpt lat="43.15819" lon="2.27106">
        <ele>245.848206</ele>
        <time>2015-07-18T12:05:30Z</time>
      </trkpt>
      <trkpt lat="43.1583" lon="2.27107">
        <ele>244.903809</ele>
        <time>2015-07-18T12:05:39Z</time>
      </trkpt>
      <trkpt lat="43.15854" lon="2.27116">
        <ele>241.812469</ele>
        <time>2015-07-18T12:06:01Z</time>
      </trkpt>
      <trkpt lat="43.15884" lon="2.27095">
        <ele>243.133286</ele>
        <time>2015-07-18T12:06:20Z</time>
      </trkpt>
      <trkpt lat="43.15888" lon="2.27095">
        <ele>242.95282</ele>
        <time>2015-07-18T12:06:22Z</time>
      </trkpt>
      <trkpt lat="43.1589" lon="2.27097">
        <ele>242.5233</ele>
        <time>2015-07-18T12:06:24Z</time>
      </trkpt>
      <trkpt lat="43.15895" lon="2.27111">
        <ele>239.895676</ele>
        <time>2015-07-18T12:06:37Z</time>
      </trkpt>
      <trkpt lat="43.15895" lon="2.2712">
        <ele>238.851578</ele>
        <time>2015-07-18T12:06:40Z</time>
      </trkpt>
      <trkpt lat="43.15909" lon="2.27133">
        <ele>234.678177</ele>
        <time>2015-07-18T12:06:49Z</time>
      </trkpt>
      <trkpt lat="43.1592" lon="2.27129">
        <ele>232.820374</ele>
        <time>2015-07-18T12:06:55Z</time>
      </trkpt>
      <trkpt lat="43.15922" lon="2.27128">
        <ele>232.627518</ele>
        <time>2015-07-18T12:06:56Z</time>
      </trkpt>
      <trkpt lat="43.15926" lon="2.27127">
        <ele>231.967545</ele>
        <time>2015-07-18T12:06:58Z</time>
      </trkpt>
      <trkpt lat="43.15935" lon="2.27145">
        <ele>228.911743</ele>
        <time>2015-07-18T12:07:08Z</time>
      </trkpt>
      <trkpt lat="43.15939" lon="2.27148">
        <ele>228.067795</ele>
        <time>2015-07-18T12:07:11Z</time>
      </trkpt>
      <trkpt lat="43.15941" lon="2.27164">
        <ele>227.176834</ele>
        <time>2015-07-18T12:07:19Z</time>
      </trkpt>
      <trkpt lat="43.15945" lon="2.27175">
        <ele>226.307129</ele>
        <time>2015-07-18T12:07:23Z</time>
      </trkpt>
      <trkpt lat="43.15939" lon="2.27227">
        <ele>225.899536</ele>
        <time>2015-07-18T12:07:50Z</time>
      </trkpt>
      <trkpt lat="43.1594" lon="2.27229">
        <ele>225.601563</ele>
        <time>2015-07-18T12:07:51Z</time>
      </trkpt>
      <trkpt lat="43.15957" lon="2.27247">
        <ele>223.731491</ele>
        <time>2015-07-18T12:07:59Z</time>
      </trkpt>
      <trkpt lat="43.15976" lon="2.27255">
        <ele>223.092819</ele>
        <time>2015-07-18T12:08:10Z</time>
      </trkpt>
      <trkpt lat="43.15997" lon="2.27254">
        <ele>220.987</ele>
        <time>2015-07-18T12:08:19Z</time>
      </trkpt>
      <trkpt lat="43.16005" lon="2.27262">
        <ele>220.374023</ele>
        <time>2015-07-18T12:08:22Z</time>
      </trkpt>
      <trkpt lat="43.16011" lon="2.27266">
        <ele>219.842117</ele>
        <time>2015-07-18T12:08:24Z</time>
      </trkpt>
      <trkpt lat="43.16042" lon="2.27233">
        <ele>211.192505</ele>
        <time>2015-07-18T12:08:36Z</time>
      </trkpt>
      <trkpt lat="43.16051" lon="2.27235">
        <ele>209.284973</ele>
        <time>2015-07-18T12:08:40Z</time>
      </trkpt>
      <trkpt lat="43.1608" lon="2.27275">
        <ele>208.647812</ele>
        <time>2015-07-18T12:08:55Z</time>
      </trkpt>
      <trkpt lat="43.16101" lon="2.27356">
        <ele>202.746887</ele>
        <time>2015-07-18T12:09:08Z</time>
      </trkpt>
      <trkpt lat="43.16109" lon="2.27366">
        <ele>200.603958</ele>
        <time>2015-07-18T12:09:10Z</time>
      </trkpt>
      <trkpt lat="43.16081" lon="2.27591">
        <ele>180.904999</ele>
        <time>2015-07-18T12:09:43Z</time>
      </trkpt>
      <trkpt lat="43.16083" lon="2.27597">
        <ele>180.372498</ele>
        <time>2015-07-18T12:09:44Z</time>
      </trkpt>
      <trkpt lat="43.16091" lon="2.27609">
        <ele>179.017502</ele>
        <time>2015-07-18T12:09:46Z</time>
      </trkpt>
      <trkpt lat="43.16127" lon="2.27638">
        <ele>175.913132</ele>
        <time>2015-07-18T12:09:52Z</time>
      </trkpt>
      <trkpt lat="43.16129" lon="2.27644">
        <ele>175.786682</ele>
        <time>2015-07-18T12:09:53Z</time>
      </trkpt>
      <trkpt lat="43.1613" lon="2.2769">
        <ele>177.172028</ele>
        <time>2015-07-18T12:10:00Z</time>
      </trkpt>
      <trkpt lat="43.16131" lon="2.27693">
        <ele>177.4478</ele>
        <time>2015-07-18T12:10:01Z</time>
      </trkpt>
      <trkpt lat="43.16133" lon="2.27695">
        <ele>177.739304</ele>
        <time>2015-07-18T12:10:02Z</time>
      </trkpt>
      <trkpt lat="43.16136" lon="2.27696">
        <ele>178.056244</ele>
        <time>2015-07-18T12:10:03Z</time>
      </trkpt>
      <trkpt lat="43.16165" lon="2.27668">
        <ele>180.010696</ele>
        <time>2015-07-18T12:10:28Z</time>
      </trkpt>
      <trkpt lat="43.16172" lon="2.27639">
        <ele>179.621201</ele>
        <time>2015-07-18T12:10:41Z</time>
      </trkpt>
      <trkpt lat="43.16225" lon="2.27547">
        <ele>183.552567</ele>
        <time>2015-07-18T12:11:23Z</time>
      </trkpt>
      <trkpt lat="43.16232" lon="2.27516">
        <ele>184.078659</ele>
        <time>2015-07-18T12:11:44Z</time>
      </trkpt>
      <trkpt lat="43.16234" lon="2.27512">
        <ele>184.444</ele>
        <time>2015-07-18T12:12:08Z</time>
      </trkpt>
      <trkpt lat="43.16241" lon="2.27517">
        <ele>184.918442</ele>
        <time>2015-07-18T12:12:33Z</time>
      </trkpt>
      <trkpt lat="43.16238" lon="2.27515">
        <ele>184.697418</ele>
        <time>2015-07-18T12:12:53Z</time>
      </trkpt>
      <trkpt lat="43.16238" lon="2.27517">
        <ele>184.641495</ele>
        <time>2015-07-18T12:13:19Z</time>
      </trkpt>
      <trkpt lat="43.16238" lon="2.27513">
        <ele>184.799606</ele>
        <time>2015-07-18T12:13:38Z</time>
      </trkpt>
      <trkpt lat="43.16244" lon="2.27508">
        <ele>185.641159</ele>
        <time>2015-07-18T12:13:45Z</time>
      </trkpt>
      <trkpt lat="43.16285" lon="2.27516">
        <ele>189.75795</ele>
        <time>2015-07-18T12:14:06Z</time>
      </trkpt>
      <trkpt lat="43.16359" lon="2.27489">
        <ele>199.257507</ele>
        <time>2015-07-18T12:14:51Z</time>
      </trkpt>
      <trkpt lat="43.16363" lon="2.27482">
        <ele>200.082504</ele>
        <time>2015-07-18T12:14:55Z</time>
      </trkpt>
      <trkpt lat="43.16364" lon="2.2748">
        <ele>200.244995</ele>
        <time>2015-07-18T12:14:56Z</time>
      </trkpt>
      <trkpt lat="43.16367" lon="2.27476">
        <ele>200.854996</ele>
        <time>2015-07-18T12:14:59Z</time>
      </trkpt>
      <trkpt lat="43.16417" lon="2.2736">
        <ele>216.045105</ele>
        <time>2015-07-18T12:16:02Z</time>
      </trkpt>
      <trkpt lat="43.16417" lon="2.27356">
        <ele>216.375107</ele>
        <time>2015-07-18T12:16:04Z</time>
      </trkpt>
      <trkpt lat="43.16426" lon="2.27325">
        <ele>219.683121</ele>
        <time>2015-07-18T12:16:20Z</time>
      </trkpt>
      <trkpt lat="43.16428" lon="2.27289">
        <ele>221.149307</ele>
        <time>2015-07-18T12:16:37Z</time>
      </trkpt>
      <trkpt lat="43.16439" lon="2.27268">
        <ele>222.225479</ele>
        <time>2015-07-18T12:16:51Z</time>
      </trkpt>
      <trkpt lat="43.16446" lon="2.2726">
        <ele>222.527847</ele>
        <time>2015-07-18T12:16:57Z</time>
      </trkpt>
      <trkpt lat="43.1645" lon="2.27258">
        <ele>222.782608</ele>
        <time>2015-07-18T12:17:01Z</time>
      </trkpt>
      <trkpt lat="43.16465" lon="2.27156">
        <ele>224.883743</ele>
        <time>2015-07-18T12:17:23Z</time>
      </trkpt>
      <trkpt lat="43.16464" lon="2.27147">
        <ele>224.674454</ele>
        <time>2015-07-18T12:17:25Z</time>
      </trkpt>
      <trkpt lat="43.16473" lon="2.27123">
        <ele>224.417496</ele>
        <time>2015-07-18T12:17:31Z</time>
      </trkpt>
      <trkpt lat="43.16474" lon="2.27119">
        <ele>224.2285</ele>
        <time>2015-07-18T12:17:32Z</time>
      </trkpt>
      <trkpt lat="43.16468" lon="2.27099">
        <ele>223.300781</ele>
        <time>2015-07-18T12:17:35Z</time>
      </trkpt>
      <trkpt lat="43.1644" lon="2.27059">
        <ele>222.603439</ele>
        <time>2015-07-18T12:17:42Z</time>
      </trkpt>
      <trkpt lat="43.16435" lon="2.27058">
        <ele>222.829193</ele>
        <time>2015-07-18T12:17:43Z</time>
      </trkpt>
      <trkpt lat="43.16431" lon="2.27062">
        <ele>223.021255</ele>
        <time>2015-07-18T12:17:44Z</time>
      </trkpt>
      <trkpt lat="43.16428" lon="2.2707">
        <ele>223.085388</ele>
        <time>2015-07-18T12:17:46Z</time>
      </trkpt>
      <trkpt lat="43.16421" lon="2.27114">
        <ele>222.461609</ele>
        <time>2015-07-18T12:17:57Z</time>
      </trkpt>
      <trkpt lat="43.16371" lon="2.27175">
        <ele>220.465103</ele>
        <time>2015-07-18T12:18:14Z</time>
      </trkpt>
      <trkpt lat="43.1637" lon="2.27172">
        <ele>220.5849</ele>
        <time>2015-07-18T12:18:16Z</time>
      </trkpt>
      <trkpt lat="43.1637" lon="2.27171">
        <ele>220.590179</ele>
        <time>2015-07-18T12:18:17Z</time>
      </trkpt>
      <trkpt lat="43.16377" lon="2.27168">
        <ele>220.322388</ele>
        <time>2015-07-18T12:18:21Z</time>
      </trkpt>
      <trkpt lat="43.16388" lon="2.27153">
        <ele>220.068741</ele>
        <time>2015-07-18T12:18:28Z</time>
      </trkpt>
      <trkpt lat="43.1639" lon="2.27153">
        <ele>220.119995</ele>
        <time>2015-07-18T12:18:29Z</time>
      </trkpt>
      <trkpt lat="43.16389" lon="2.27156">
        <ele>220.044998</ele>
        <time>2015-07-18T12:18:32Z</time>
      </trkpt>
      <trkpt lat="43.16386" lon="2.27158">
        <ele>219.981293</ele>
        <time>2015-07-18T12:18:37Z</time>
      </trkpt>
      <trkpt lat="43.16338" lon="2.27216">
        <ele>219.94397</ele>
        <time>2015-07-18T12:19:11Z</time>
      </trkpt>
      <trkpt lat="43.16335" lon="2.27217">
        <ele>219.939926</ele>
        <time>2015-07-18T12:19:12Z</time>
      </trkpt>
      <trkpt lat="43.16332" lon="2.27216">
        <ele>220.054291</ele>
        <time>2015-07-18T12:19:13Z</time>
      </trkpt>
      <trkpt lat="43.16322" lon="2.27194">
        <ele>221.275375</ele>
        <time>2015-07-18T12:19:24Z</time>
      </trkpt>
      <trkpt lat="43.16318" lon="2.27191">
        <ele>221.476318</ele>
        <time>2015-07-18T12:19:27Z</time>
      </trkpt>
      <trkpt lat="43.16312" lon="2.27203">
        <ele>221.081879</ele>
        <time>2015-07-18T12:19:36Z</time>
      </trkpt>
      <trkpt lat="43.16306" lon="2.27205">
        <ele>221.120239</ele>
        <time>2015-07-18T12:19:40Z</time>
      </trkpt>
      <trkpt lat="43.16303" lon="2.27211">
        <ele>220.96463</ele>
        <time>2015-07-18T12:19:45Z</time>
      </trkpt>
      <trkpt lat="43.16322" lon="2.27219">
        <ele>219.954773</ele>
        <time>2015-07-18T12:19:54Z</time>
      </trkpt>
      <trkpt lat="43.16323" lon="2.27217">
        <ele>220.108963</ele>
        <time>2015-07-18T12:19:55Z</time>
      </trkpt>
      <trkpt lat="43.1632" lon="2.27215">
        <ele>220.430252</ele>
        <time>2015-07-18T12:20:41Z</time>
      </trkpt>
      <trkpt lat="43.16316" lon="2.27216">
        <ele>220.414063</ele>
        <time>2015-07-18T12:20:56Z</time>
      </trkpt>
      <trkpt lat="43.1632" lon="2.27211">
        <ele>220.630417</ele>
        <time>2015-07-18T12:21:14Z</time>
      </trkpt>
      <trkpt lat="43.16317" lon="2.27219">
        <ele>220.046875</ele>
        <time>2015-07-18T12:21:44Z</time>
      </trkpt>
      <trkpt lat="43.16319" lon="2.27202">
        <ele>220.97905</ele>
        <time>2015-07-07T17:41:27Z</time>
      </trkpt>
      <trkpt lat="43.16318" lon="2.27202">
        <ele>221.019699</ele>
        <time>2015-07-07T17:41:40Z</time>
      </trkpt>
      <trkpt lat="43.16319" lon="2.27203">
        <ele>220.959198</ele>
        <time>2015-07-07T17:42:48Z</time>
      </trkpt>
      <trkpt lat="43.16318" lon="2.27203">
        <ele>220.991028</ele>
        <time>2015-07-07T17:43:44Z</time>
      </trkpt>
      <trkpt lat="43.16319" lon="2.27208">
        <ele>220.760391</ele>
        <time>2015-07-07T17:44:56Z</time>
      </trkpt>
      <trkpt lat="43.16321" lon="2.27207">
        <ele>220.739746</ele>
        <time>2015-07-07T17:45:19Z</time>
      </trkpt>
      <trkpt lat="43.16321" lon="2.27204">
        <ele>220.891632</ele>
        <time>2015-07-07T17:45:50Z</time>
      </trkpt>
      <trkpt lat="43.16322" lon="2.27201">
        <ele>220.998047</ele>
        <time>2015-07-07T17:46:12Z</time>
      </trkpt>
      <trkpt lat="43.16316" lon="2.27208">
        <ele>220.834106</ele>
        <time>2015-07-07T17:46:30Z</time>
      </trkpt>
    </trkseg>
  </trk>
</gpx>